TAP210 KJFK-LPPT
Flight info
| Callsign | TAP210 |
|---|---|
| Flight time | 6h 27m |
| Altitude | 37000 |
| Route | SHIPP Y487 ISLES DCT JENYY DCT JOBOC/M079F370 DCT 42N060W 43N050W 4230N04000W 41N030W 3930N02000W DCT GUNTI/N0449F370 DCT NEGRI DCT XANEL DCT LAZET |
| Aircraft | A339/H-SDE1E2E3GHIJ1J3J5M1P2RWXYZ/LB2D1 |
Departure
| Time | 2026-05-07 02:21 |
|---|---|
| Airport | John F. Kennedy International Airport (KJFK) |
Arrival
| Time | 2026-05-07 08:49 |
|---|---|
| Airport | Lisbon Humberto Delgado Airport (LPPT) |
| Time | Latitude | Longitude | Altitude | Speed | Heading |
|---|---|---|---|---|---|
| 2026-05-07 01:45 | 40.64207 | -73.79075 | 30 ft | 0 kts | 337° |
| 2026-05-07 02:00 | 40.64199 | -73.79071 | 30 ft | 2 kts | 337° |
| 2026-05-07 02:00 | 40.64191 | -73.79066 | 30 ft | 1 kts | 337° |
| 2026-05-07 02:01 | 40.64178 | -73.79056 | 30 ft | 2 kts | 309° |
| 2026-05-07 02:01 | 40.64171 | -73.79038 | 30 ft | 2 kts | 283° |
| 2026-05-07 02:01 | 40.64170 | -73.79020 | 30 ft | 1 kts | 259° |
| 2026-05-07 02:01 | 40.64169 | -73.79022 | 30 ft | 2 kts | 258° |
| 2026-05-07 02:02 | 40.64153 | -73.79041 | 30 ft | 5 kts | 205° |
| 2026-05-07 02:02 | 40.64135 | -73.79056 | 30 ft | 1 kts | 223° |
| 2026-05-07 02:02 | 40.64133 | -73.79059 | 30 ft | 0 kts | 225° |
| 2026-05-07 02:09 | 40.64132 | -73.79060 | 30 ft | 0 kts | 225° |
| 2026-05-07 02:10 | 40.64117 | -73.79079 | 30 ft | 4 kts | 225° |
| 2026-05-07 02:10 | 40.64089 | -73.79117 | 30 ft | 6 kts | 225° |
| 2026-05-07 02:10 | 40.64051 | -73.79166 | 30 ft | 9 kts | 225° |
| 2026-05-07 02:10 | 40.64001 | -73.79230 | 30 ft | 10 kts | 224° |
| 2026-05-07 02:11 | 40.63945 | -73.79302 | 30 ft | 10 kts | 217° |
| 2026-05-07 02:11 | 40.63882 | -73.79287 | 30 ft | 10 kts | 122° |
| 2026-05-07 02:11 | 40.63843 | -73.79197 | 30 ft | 12 kts | 120° |
| 2026-05-07 02:11 | 40.63795 | -73.79092 | 30 ft | 13 kts | 121° |
| 2026-05-07 02:12 | 40.63743 | -73.78979 | 30 ft | 16 kts | 121° |
| 2026-05-07 02:12 | 40.63682 | -73.78848 | 30 ft | 16 kts | 120° |
| 2026-05-07 02:12 | 40.63623 | -73.78713 | 30 ft | 17 kts | 120° |
| 2026-05-07 02:12 | 40.63561 | -73.78577 | 30 ft | 17 kts | 121° |
| 2026-05-07 02:13 | 40.63498 | -73.78441 | 30 ft | 17 kts | 121° |
| 2026-05-07 02:13 | 40.63441 | -73.78303 | 30 ft | 16 kts | 120° |
| 2026-05-07 02:13 | 40.63385 | -73.78180 | 30 ft | 14 kts | 121° |
| 2026-05-07 02:13 | 40.63336 | -73.78059 | 30 ft | 15 kts | 105° |
| 2026-05-07 02:14 | 40.63333 | -73.77920 | 30 ft | 15 kts | 80° |
| 2026-05-07 02:14 | 40.63388 | -73.77799 | 30 ft | 15 kts | 38° |
| 2026-05-07 02:14 | 40.63485 | -73.77725 | 30 ft | 16 kts | 28° |
| 2026-05-07 02:14 | 40.63584 | -73.77652 | 30 ft | 16 kts | 33° |
| 2026-05-07 02:15 | 40.63683 | -73.77569 | 30 ft | 16 kts | 31° |
| 2026-05-07 02:15 | 40.63785 | -73.77490 | 30 ft | 17 kts | 30° |
| 2026-05-07 02:15 | 40.63889 | -73.77409 | 30 ft | 17 kts | 31° |
| 2026-05-07 02:15 | 40.63992 | -73.77329 | 30 ft | 17 kts | 31° |
| 2026-05-07 02:16 | 40.64097 | -73.77245 | 30 ft | 17 kts | 31° |
| 2026-05-07 02:16 | 40.64204 | -73.77160 | 30 ft | 17 kts | 31° |
| 2026-05-07 02:16 | 40.64310 | -73.77077 | 30 ft | 17 kts | 30° |
| 2026-05-07 02:16 | 40.64417 | -73.77003 | 30 ft | 17 kts | 18° |
| 2026-05-07 02:17 | 40.64529 | -73.76978 | 30 ft | 14 kts | 18° |
| 2026-05-07 02:17 | 40.64592 | -73.76936 | 30 ft | 10 kts | 31° |
| 2026-05-07 02:17 | 40.64669 | -73.76871 | 30 ft | 16 kts | 33° |
| 2026-05-07 02:17 | 40.64779 | -73.76776 | 30 ft | 20 kts | 34° |
| 2026-05-07 02:18 | 40.64899 | -73.76673 | 30 ft | 20 kts | 30° |
| 2026-05-07 02:18 | 40.65022 | -73.76578 | 30 ft | 20 kts | 30° |
| 2026-05-07 02:18 | 40.65097 | -73.76477 | 30 ft | 14 kts | 94° |
| 2026-05-07 02:18 | 40.65058 | -73.76361 | 30 ft | 10 kts | 126° |
| 2026-05-07 02:19 | 40.65017 | -73.76360 | 30 ft | 3 kts | 207° |
| 2026-05-07 02:19 | 40.65016 | -73.76360 | 30 ft | 0 kts | 207° |
| 2026-05-07 02:19 | 40.65015 | -73.76360 | 30 ft | 0 kts | 209° |
| 2026-05-07 02:19 | 40.65014 | -73.76361 | 30 ft | 0 kts | 211° |
| 2026-05-07 02:20 | 40.64994 | -73.76376 | 30 ft | 10 kts | 210° |
| 2026-05-07 02:20 | 40.64753 | -73.76566 | 30 ft | 72 kts | 210° |
| 2026-05-07 02:21 | 40.64145 | -73.77042 | 30 ft | 127 kts | 211° |
| 2026-05-07 02:21 | 40.63257 | -73.77735 | 63 ft | 168 kts | 210° |
| 2026-05-07 02:21 | 40.62228 | -73.78538 | 540 ft | 171 kts | 210° |
| 2026-05-07 02:21 | 40.61191 | -73.79324 | 1122 ft | 174 kts | 209° |
| 2026-05-07 02:22 | 40.60144 | -73.80103 | 1715 ft | 176 kts | 209° |
| 2026-05-07 02:22 | 40.59055 | -73.80840 | 2190 ft | 180 kts | 195° |
| 2026-05-07 02:22 | 40.57789 | -73.80640 | 2450 ft | 197 kts | 147° |
| 2026-05-07 02:22 | 40.56933 | -73.79179 | 2724 ft | 215 kts | 115° |
| 2026-05-07 02:23 | 40.56352 | -73.77283 | 3022 ft | 232 kts | 114° |
| 2026-05-07 02:23 | 40.55692 | -73.75260 | 3333 ft | 249 kts | 117° |
| 2026-05-07 02:23 | 40.54920 | -73.73164 | 3646 ft | 265 kts | 121° |
| 2026-05-07 02:23 | 40.54018 | -73.70950 | 4095 ft | 278 kts | 124° |
| 2026-05-07 02:24 | 40.53074 | -73.68745 | 4736 ft | 282 kts | 126° |
| 2026-05-07 02:24 | 40.52082 | -73.66518 | 5380 ft | 287 kts | 126° |
| 2026-05-07 02:24 | 40.51056 | -73.64239 | 6046 ft | 290 kts | 127° |
| 2026-05-07 02:24 | 40.50016 | -73.61958 | 6687 ft | 294 kts | 126° |
| 2026-05-07 02:25 | 40.48968 | -73.59663 | 7315 ft | 297 kts | 126° |
| 2026-05-07 02:25 | 40.47900 | -73.57328 | 7950 ft | 300 kts | 125° |
| 2026-05-07 02:25 | 40.46829 | -73.54998 | 8724 ft | 299 kts | 123° |
| 2026-05-07 02:25 | 40.45752 | -73.52678 | 9531 ft | 298 kts | 122° |
| 2026-05-07 02:26 | 40.44694 | -73.50366 | 10312 ft | 296 kts | 120° |
| 2026-05-07 02:26 | 40.43646 | -73.48048 | 10843 ft | 304 kts | 121° |
| 2026-05-07 02:26 | 40.42554 | -73.45603 | 11130 ft | 320 kts | 123° |
| 2026-05-07 02:26 | 40.41383 | -73.43025 | 11409 ft | 337 kts | 125° |
| 2026-05-07 02:27 | 40.40156 | -73.40348 | 11733 ft | 350 kts | 127° |
| 2026-05-07 02:27 | 40.38876 | -73.37583 | 12214 ft | 358 kts | 127° |
| 2026-05-07 02:27 | 40.37567 | -73.34768 | 12777 ft | 363 kts | 128° |
| 2026-05-07 02:27 | 40.36260 | -73.31934 | 13371 ft | 366 kts | 127° |
| 2026-05-07 02:28 | 40.34936 | -73.29077 | 13998 ft | 370 kts | 128° |
| 2026-05-07 02:28 | 40.33610 | -73.26208 | 14560 ft | 373 kts | 127° |
| 2026-05-07 02:28 | 40.32257 | -73.23317 | 15124 ft | 377 kts | 129° |
| 2026-05-07 02:28 | 40.30821 | -73.20403 | 15673 ft | 382 kts | 129° |
| 2026-05-07 02:29 | 40.29355 | -73.17487 | 16203 ft | 388 kts | 130° |
| 2026-05-07 02:29 | 40.27870 | -73.14528 | 16756 ft | 392 kts | 129° |
| 2026-05-07 02:29 | 40.26364 | -73.11530 | 17309 ft | 397 kts | 129° |
| 2026-05-07 02:29 | 40.24845 | -73.08488 | 17839 ft | 402 kts | 129° |
| 2026-05-07 02:30 | 40.23323 | -73.05446 | 18375 ft | 407 kts | 129° |
| 2026-05-07 02:30 | 40.21765 | -73.02327 | 18843 ft | 413 kts | 129° |
| 2026-05-07 02:30 | 40.20179 | -72.99153 | 19361 ft | 418 kts | 129° |
| 2026-05-07 02:30 | 40.18579 | -72.95946 | 19862 ft | 423 kts | 130° |
| 2026-05-07 02:31 | 40.16954 | -72.92714 | 20317 ft | 428 kts | 129° |
| 2026-05-07 02:31 | 40.15317 | -72.89461 | 20715 ft | 436 kts | 130° |
| 2026-05-07 02:31 | 40.13647 | -72.86134 | 21198 ft | 440 kts | 130° |
| 2026-05-07 02:31 | 40.11956 | -72.82770 | 21650 ft | 444 kts | 130° |
| 2026-05-07 02:32 | 40.10257 | -72.79364 | 22053 ft | 452 kts | 129° |
| 2026-05-07 02:32 | 40.08648 | -72.75871 | 22464 ft | 458 kts | 127° |
| 2026-05-07 02:32 | 40.07021 | -72.72276 | 22910 ft | 462 kts | 127° |
| 2026-05-07 02:32 | 40.05382 | -72.68628 | 23318 ft | 467 kts | 127° |
| 2026-05-07 02:33 | 40.03740 | -72.64998 | 23745 ft | 471 kts | 127° |
| 2026-05-07 02:33 | 40.02064 | -72.61287 | 24223 ft | 473 kts | 127° |
| 2026-05-07 02:33 | 40.00400 | -72.57610 | 24687 ft | 475 kts | 126° |
| 2026-05-07 02:33 | 39.98730 | -72.53925 | 25181 ft | 476 kts | 127° |
| 2026-05-07 02:34 | 39.97028 | -72.50181 | 25674 ft | 477 kts | 127° |
| 2026-05-07 02:34 | 39.95368 | -72.46478 | 26124 ft | 480 kts | 127° |
| 2026-05-07 02:34 | 39.93708 | -72.42694 | 26551 ft | 482 kts | 127° |
| 2026-05-07 02:34 | 39.92043 | -72.38892 | 26999 ft | 484 kts | 126° |
| 2026-05-07 02:35 | 39.90392 | -72.35136 | 27408 ft | 485 kts | 126° |
| 2026-05-07 02:35 | 39.88689 | -72.31271 | 27769 ft | 488 kts | 127° |
| 2026-05-07 02:35 | 39.87002 | -72.27438 | 28128 ft | 490 kts | 127° |
| 2026-05-07 02:35 | 39.85300 | -72.23589 | 28460 ft | 493 kts | 127° |
| 2026-05-07 02:36 | 39.83588 | -72.19722 | 28748 ft | 496 kts | 127° |
| 2026-05-07 02:36 | 39.81862 | -72.15816 | 29075 ft | 498 kts | 127° |
| 2026-05-07 02:36 | 39.80132 | -72.11916 | 29361 ft | 502 kts | 127° |
| 2026-05-07 02:36 | 39.78394 | -72.07988 | 29778 ft | 502 kts | 127° |
| 2026-05-07 02:37 | 39.76663 | -72.04092 | 30193 ft | 503 kts | 127° |
| 2026-05-07 02:37 | 39.74898 | -72.00131 | 30499 ft | 505 kts | 127° |
| 2026-05-07 02:37 | 39.73121 | -71.96221 | 30735 ft | 508 kts | 128° |
| 2026-05-07 02:37 | 39.71295 | -71.92289 | 31033 ft | 511 kts | 127° |
| 2026-05-07 02:38 | 39.69430 | -71.88318 | 31239 ft | 515 kts | 129° |
| 2026-05-07 02:38 | 39.67569 | -71.84345 | 31521 ft | 518 kts | 128° |
| 2026-05-07 02:38 | 39.65717 | -71.80376 | 31827 ft | 520 kts | 127° |
| 2026-05-07 02:38 | 39.63828 | -71.76337 | 32115 ft | 522 kts | 127° |
| 2026-05-07 02:39 | 39.61956 | -71.72327 | 32423 ft | 523 kts | 127° |
| 2026-05-07 02:39 | 39.60065 | -71.68290 | 32713 ft | 526 kts | 127° |
| 2026-05-07 02:39 | 39.58173 | -71.64247 | 32911 ft | 530 kts | 127° |
| 2026-05-07 02:39 | 39.56264 | -71.60170 | 33224 ft | 531 kts | 128° |
| 2026-05-07 02:40 | 39.54346 | -71.56082 | 33527 ft | 531 kts | 127° |
| 2026-05-07 02:40 | 39.52429 | -71.52003 | 33768 ft | 534 kts | 127° |
| 2026-05-07 02:40 | 39.50479 | -71.47863 | 34059 ft | 535 kts | 127° |
| 2026-05-07 02:40 | 39.48542 | -71.43763 | 34341 ft | 537 kts | 126° |
| 2026-05-07 02:41 | 39.46708 | -71.39539 | 34547 ft | 544 kts | 118° |
| 2026-05-07 02:41 | 39.45311 | -71.34997 | 34816 ft | 550 kts | 109° |
| 2026-05-07 02:41 | 39.44443 | -71.30160 | 35114 ft | 552 kts | 99° |
| 2026-05-07 02:41 | 39.44133 | -71.25275 | 35427 ft | 550 kts | 88° |
| 2026-05-07 02:42 | 39.44381 | -71.20373 | 35728 ft | 546 kts | 78° |
| 2026-05-07 02:42 | 39.45119 | -71.15562 | 36069 ft | 541 kts | 72° |
| 2026-05-07 02:42 | 39.45986 | -71.10895 | 36415 ft | 539 kts | 71° |
| 2026-05-07 02:42 | 39.46881 | -71.06179 | 36721 ft | 539 kts | 71° |
| 2026-05-07 02:43 | 39.47750 | -71.01508 | 36974 ft | 540 kts | 72° |
| 2026-05-07 02:43 | 39.48609 | -70.96747 | 37189 ft | 541 kts | 72° |
| 2026-05-07 02:43 | 39.49433 | -70.92027 | 37398 ft | 542 kts | 72° |
| 2026-05-07 02:43 | 39.50248 | -70.87293 | 37612 ft | 543 kts | 72° |
| 2026-05-07 02:44 | 39.51067 | -70.82494 | 37817 ft | 544 kts | 71° |
| 2026-05-07 02:44 | 39.51876 | -70.77751 | 37999 ft | 545 kts | 72° |
| 2026-05-07 02:44 | 39.52685 | -70.72953 | 38177 ft | 546 kts | 72° |
| 2026-05-07 02:44 | 39.53494 | -70.68153 | 38410 ft | 546 kts | 72° |
| 2026-05-07 02:45 | 39.54306 | -70.63344 | 38589 ft | 547 kts | 71° |
| 2026-05-07 02:45 | 39.55106 | -70.58590 | 38772 ft | 548 kts | 71° |
| 2026-05-07 02:45 | 39.55917 | -70.53745 | 38948 ft | 549 kts | 71° |
| 2026-05-07 02:45 | 39.56719 | -70.48934 | 39089 ft | 550 kts | 71° |
| 2026-05-07 02:46 | 39.58331 | -70.39253 | 39101 ft | 551 kts | 71° |
| 2026-05-07 02:46 | 39.59936 | -70.29591 | 39095 ft | 553 kts | 72° |
| 2026-05-07 02:47 | 39.61527 | -70.19902 | 39098 ft | 551 kts | 72° |
| 2026-05-07 02:47 | 39.63120 | -70.10184 | 39103 ft | 552 kts | 72° |
| 2026-05-07 02:48 | 39.64698 | -70.00489 | 39102 ft | 551 kts | 72° |
| 2026-05-07 02:48 | 39.66267 | -69.90778 | 39106 ft | 551 kts | 72° |
| 2026-05-07 02:49 | 39.67830 | -69.81042 | 39102 ft | 551 kts | 72° |
| 2026-05-07 02:49 | 39.69380 | -69.71350 | 39097 ft | 550 kts | 72° |
| 2026-05-07 02:50 | 39.70934 | -69.61626 | 39106 ft | 553 kts | 73° |
| 2026-05-07 02:50 | 39.72465 | -69.51916 | 39114 ft | 552 kts | 73° |
| 2026-05-07 02:51 | 39.73993 | -69.42201 | 39120 ft | 550 kts | 72° |
| 2026-05-07 02:51 | 39.75512 | -69.32497 | 39114 ft | 549 kts | 73° |
| 2026-05-07 02:52 | 39.77032 | -69.22755 | 39118 ft | 551 kts | 73° |
| 2026-05-07 02:52 | 39.78524 | -69.13069 | 39128 ft | 550 kts | 73° |
| 2026-05-07 02:53 | 39.80020 | -69.03333 | 39123 ft | 548 kts | 73° |
| 2026-05-07 02:53 | 39.81509 | -68.93617 | 39142 ft | 548 kts | 73° |
| 2026-05-07 02:54 | 39.82979 | -68.83960 | 39134 ft | 548 kts | 73° |
| 2026-05-07 02:54 | 39.84445 | -68.74259 | 39138 ft | 548 kts | 73° |
| 2026-05-07 02:55 | 39.85891 | -68.64593 | 39146 ft | 548 kts | 73° |
| 2026-05-07 02:55 | 39.87338 | -68.54908 | 39142 ft | 547 kts | 73° |
| 2026-05-07 02:56 | 39.88781 | -68.45197 | 39142 ft | 546 kts | 73° |
| 2026-05-07 02:56 | 39.90208 | -68.35512 | 39144 ft | 547 kts | 73° |
| 2026-05-07 02:57 | 39.91632 | -68.25811 | 39141 ft | 546 kts | 74° |
| 2026-05-07 02:57 | 39.93044 | -68.16127 | 39144 ft | 547 kts | 74° |
| 2026-05-07 02:58 | 39.94490 | -68.06483 | 39147 ft | 545 kts | 72° |
| 2026-05-07 02:58 | 39.96104 | -67.96815 | 39144 ft | 543 kts | 72° |
| 2026-05-07 02:59 | 39.97708 | -67.87225 | 39151 ft | 544 kts | 72° |
| 2026-05-07 02:59 | 39.99276 | -67.77647 | 39164 ft | 542 kts | 72° |
| 2026-05-07 03:00 | 40.00839 | -67.68047 | 39169 ft | 542 kts | 72° |
| 2026-05-07 03:00 | 40.02394 | -67.58432 | 39174 ft | 541 kts | 72° |
| 2026-05-07 03:01 | 40.03924 | -67.48915 | 39189 ft | 540 kts | 72° |
| 2026-05-07 03:01 | 40.05455 | -67.39333 | 39190 ft | 541 kts | 72° |
| 2026-05-07 03:02 | 40.06975 | -67.29772 | 39191 ft | 541 kts | 73° |
| 2026-05-07 03:02 | 40.08497 | -67.20179 | 39200 ft | 542 kts | 73° |
| 2026-05-07 03:03 | 40.10007 | -67.10562 | 39202 ft | 541 kts | 74° |
| 2026-05-07 03:03 | 40.11660 | -67.01002 | 39202 ft | 538 kts | 69° |
| 2026-05-07 03:04 | 40.14048 | -66.91872 | 39215 ft | 532 kts | 62° |
| 2026-05-07 03:04 | 40.16821 | -66.82946 | 39220 ft | 531 kts | 61° |
| 2026-05-07 03:05 | 40.19576 | -66.74055 | 39223 ft | 530 kts | 62° |
| 2026-05-07 03:05 | 40.22300 | -66.65115 | 39223 ft | 531 kts | 62° |
| 2026-05-07 03:06 | 40.25008 | -66.56184 | 39225 ft | 530 kts | 62° |
| 2026-05-07 03:06 | 40.27723 | -66.47236 | 39219 ft | 529 kts | 62° |
| 2026-05-07 03:07 | 40.30409 | -66.38305 | 39220 ft | 530 kts | 62° |
| 2026-05-07 03:07 | 40.33078 | -66.29394 | 39213 ft | 527 kts | 62° |
| 2026-05-07 03:08 | 40.35767 | -66.20431 | 39206 ft | 527 kts | 63° |
| 2026-05-07 03:08 | 40.38415 | -66.11539 | 39215 ft | 527 kts | 63° |
| 2026-05-07 03:09 | 40.41067 | -66.02619 | 39205 ft | 527 kts | 63° |
| 2026-05-07 03:09 | 40.43724 | -65.93640 | 39208 ft | 526 kts | 63° |
| 2026-05-07 03:10 | 40.46349 | -65.84733 | 39211 ft | 527 kts | 63° |
| 2026-05-07 03:10 | 40.48977 | -65.75787 | 39209 ft | 527 kts | 62° |
| 2026-05-07 03:11 | 40.51604 | -65.66864 | 39213 ft | 525 kts | 63° |
| 2026-05-07 03:11 | 40.54224 | -65.57886 | 39213 ft | 525 kts | 63° |
| 2026-05-07 03:12 | 40.56813 | -65.48969 | 39215 ft | 525 kts | 62° |
| 2026-05-07 03:12 | 40.59425 | -65.39999 | 39220 ft | 525 kts | 63° |
| 2026-05-07 03:13 | 40.62016 | -65.31038 | 39215 ft | 526 kts | 63° |
| 2026-05-07 03:13 | 40.64588 | -65.22090 | 39217 ft | 525 kts | 63° |
| 2026-05-07 03:14 | 40.67168 | -65.13119 | 39227 ft | 524 kts | 63° |
| 2026-05-07 03:15 | 40.71006 | -64.99723 | 39229 ft | 524 kts | 63° |
| 2026-05-07 03:15 | 40.73549 | -64.90798 | 39228 ft | 522 kts | 63° |
| 2026-05-07 03:16 | 40.76085 | -64.81853 | 39227 ft | 522 kts | 63° |
| 2026-05-07 03:16 | 40.78623 | -64.72880 | 39235 ft | 522 kts | 63° |
| 2026-05-07 03:17 | 40.81139 | -64.63945 | 39230 ft | 521 kts | 63° |
| 2026-05-07 03:17 | 40.83640 | -64.55037 | 39242 ft | 521 kts | 63° |
| 2026-05-07 03:18 | 40.86143 | -64.46092 | 39239 ft | 520 kts | 63° |
| 2026-05-07 03:18 | 40.88638 | -64.37139 | 39236 ft | 520 kts | 63° |
| 2026-05-07 03:19 | 40.91118 | -64.28208 | 39236 ft | 520 kts | 64° |
| 2026-05-07 03:19 | 40.93595 | -64.19258 | 39245 ft | 520 kts | 64° |
| 2026-05-07 03:20 | 40.96062 | -64.10313 | 39252 ft | 519 kts | 64° |
| 2026-05-07 03:20 | 40.98510 | -64.01408 | 39254 ft | 519 kts | 64° |
| 2026-05-07 03:21 | 41.00958 | -63.92466 | 39251 ft | 519 kts | 64° |
| 2026-05-07 03:21 | 41.03400 | -63.83518 | 39263 ft | 518 kts | 65° |
| 2026-05-07 03:22 | 41.05825 | -63.74578 | 39265 ft | 517 kts | 64° |
| 2026-05-07 03:22 | 41.08257 | -63.65616 | 39266 ft | 518 kts | 64° |
| 2026-05-07 03:23 | 41.10676 | -63.56639 | 39270 ft | 517 kts | 65° |
| 2026-05-07 03:23 | 41.13092 | -63.47680 | 39266 ft | 519 kts | 64° |
| 2026-05-07 03:24 | 41.15491 | -63.38712 | 39270 ft | 518 kts | 64° |
| 2026-05-07 03:24 | 41.17877 | -63.29784 | 39262 ft | 516 kts | 65° |
| 2026-05-07 03:25 | 41.20271 | -63.20777 | 39272 ft | 515 kts | 65° |
| 2026-05-07 03:25 | 41.22636 | -63.11854 | 39268 ft | 515 kts | 65° |
| 2026-05-07 03:26 | 41.25004 | -63.02881 | 39275 ft | 515 kts | 65° |
| 2026-05-07 03:26 | 41.27346 | -62.93988 | 39262 ft | 514 kts | 65° |
| 2026-05-07 03:27 | 41.29699 | -62.85011 | 39267 ft | 514 kts | 65° |
| 2026-05-07 03:27 | 41.32034 | -62.76062 | 39272 ft | 512 kts | 65° |
| 2026-05-07 03:28 | 41.34360 | -62.67152 | 39263 ft | 511 kts | 66° |
| 2026-05-07 03:28 | 41.36667 | -62.58252 | 39268 ft | 510 kts | 66° |
| 2026-05-07 03:29 | 41.38964 | -62.49357 | 39278 ft | 508 kts | 66° |
| 2026-05-07 03:29 | 41.41237 | -62.40529 | 39269 ft | 507 kts | 66° |
| 2026-05-07 03:30 | 41.43517 | -62.31643 | 39269 ft | 506 kts | 66° |
| 2026-05-07 03:30 | 41.45773 | -62.22815 | 39264 ft | 506 kts | 66° |
| 2026-05-07 03:31 | 41.48033 | -62.13933 | 39278 ft | 505 kts | 66° |
| 2026-05-07 03:31 | 41.50263 | -62.05136 | 39277 ft | 504 kts | 66° |
| 2026-05-07 03:32 | 41.52496 | -61.96304 | 39282 ft | 503 kts | 66° |
| 2026-05-07 03:32 | 41.54716 | -61.87494 | 39283 ft | 502 kts | 67° |
| 2026-05-07 03:33 | 41.56926 | -61.78688 | 39284 ft | 502 kts | 67° |
| 2026-05-07 03:33 | 41.59133 | -61.69851 | 39279 ft | 500 kts | 66° |
| 2026-05-07 03:34 | 41.61316 | -61.61078 | 39293 ft | 501 kts | 67° |
| 2026-05-07 03:34 | 41.63504 | -61.52267 | 39292 ft | 500 kts | 67° |
| 2026-05-07 03:35 | 41.65670 | -61.43505 | 39288 ft | 499 kts | 67° |
| 2026-05-07 03:35 | 41.67837 | -61.34697 | 39288 ft | 498 kts | 68° |
| 2026-05-07 03:36 | 41.69994 | -61.25911 | 39285 ft | 498 kts | 68° |
| 2026-05-07 03:36 | 41.72131 | -61.17157 | 39281 ft | 496 kts | 68° |
| 2026-05-07 03:37 | 41.74262 | -61.08406 | 39294 ft | 495 kts | 68° |
| 2026-05-07 03:37 | 41.76372 | -60.99704 | 39296 ft | 495 kts | 68° |
| 2026-05-07 03:38 | 41.78486 | -60.90954 | 39297 ft | 495 kts | 68° |
| 2026-05-07 03:38 | 41.80593 | -60.82198 | 39291 ft | 494 kts | 68° |
| 2026-05-07 03:39 | 41.82680 | -60.73506 | 39303 ft | 493 kts | 69° |
| 2026-05-07 03:39 | 41.84758 | -60.64802 | 39311 ft | 491 kts | 69° |
| 2026-05-07 03:40 | 41.86827 | -60.56108 | 39317 ft | 490 kts | 69° |
| 2026-05-07 03:40 | 41.88891 | -60.47402 | 39316 ft | 489 kts | 69° |
| 2026-05-07 03:41 | 41.90926 | -60.38786 | 39316 ft | 488 kts | 69° |
| 2026-05-07 03:41 | 41.92965 | -60.30124 | 39317 ft | 486 kts | 70° |
| 2026-05-07 03:42 | 41.94986 | -60.21490 | 39329 ft | 486 kts | 70° |
| 2026-05-07 03:42 | 41.96998 | -60.12877 | 39336 ft | 483 kts | 70° |
| 2026-05-07 03:43 | 41.98997 | -60.04274 | 39327 ft | 483 kts | 70° |
| 2026-05-07 03:43 | 42.00653 | -59.95552 | 39339 ft | 485 kts | 76° |
| 2026-05-07 03:44 | 42.01944 | -59.86658 | 39329 ft | 485 kts | 77° |
| 2026-05-07 03:44 | 42.03207 | -59.77764 | 39343 ft | 485 kts | 77° |
| 2026-05-07 03:45 | 42.04473 | -59.68859 | 39327 ft | 484 kts | 77° |
| 2026-05-07 03:45 | 42.05725 | -59.60056 | 39330 ft | 483 kts | 77° |
| 2026-05-07 03:46 | 42.06977 | -59.51202 | 39344 ft | 483 kts | 77° |
| 2026-05-07 03:46 | 42.08228 | -59.42307 | 39319 ft | 483 kts | 77° |
| 2026-05-07 03:47 | 42.09462 | -59.33474 | 39340 ft | 483 kts | 78° |
| 2026-05-07 03:47 | 42.10687 | -59.24649 | 39332 ft | 482 kts | 78° |
| 2026-05-07 03:48 | 42.11912 | -59.15775 | 39349 ft | 482 kts | 78° |
| 2026-05-07 03:48 | 42.13126 | -59.06934 | 39348 ft | 482 kts | 78° |
| 2026-05-07 03:49 | 42.14329 | -58.98127 | 39337 ft | 480 kts | 78° |
| 2026-05-07 03:49 | 42.15533 | -58.89249 | 39336 ft | 481 kts | 78° |
| 2026-05-07 03:50 | 42.16728 | -58.80431 | 39338 ft | 482 kts | 78° |
| 2026-05-07 03:50 | 42.17912 | -58.71536 | 39322 ft | 483 kts | 78° |
| 2026-05-07 03:51 | 42.19106 | -58.62629 | 39329 ft | 484 kts | 79° |
| 2026-05-07 03:51 | 42.20289 | -58.53710 | 39329 ft | 484 kts | 79° |
| 2026-05-07 03:52 | 42.21463 | -58.44818 | 39341 ft | 484 kts | 79° |
| 2026-05-07 03:52 | 42.22620 | -58.35876 | 39339 ft | 484 kts | 79° |
| 2026-05-07 03:53 | 42.23791 | -58.26938 | 39342 ft | 484 kts | 80° |
| 2026-05-07 03:53 | 42.24943 | -58.18041 | 39345 ft | 485 kts | 81° |
| 2026-05-07 03:54 | 42.26088 | -58.09097 | 39343 ft | 485 kts | 81° |
| 2026-05-07 03:54 | 42.27235 | -58.00108 | 39361 ft | 486 kts | 81° |
| 2026-05-07 03:55 | 42.28367 | -57.91143 | 39358 ft | 487 kts | 81° |
| 2026-05-07 03:55 | 42.29498 | -57.82161 | 39360 ft | 489 kts | 81° |
| 2026-05-07 03:56 | 42.30621 | -57.73096 | 39373 ft | 492 kts | 81° |
| 2026-05-07 03:56 | 42.31750 | -57.64015 | 39369 ft | 492 kts | 81° |
| 2026-05-07 03:57 | 42.32896 | -57.54890 | 39374 ft | 495 kts | 82° |
| 2026-05-07 03:57 | 42.34005 | -57.45723 | 39374 ft | 495 kts | 82° |
| 2026-05-07 03:58 | 42.35112 | -57.36544 | 39373 ft | 497 kts | 82° |
| 2026-05-07 03:58 | 42.36245 | -57.27282 | 39383 ft | 499 kts | 83° |
| 2026-05-07 03:59 | 42.37349 | -57.18077 | 39389 ft | 501 kts | 83° |
| 2026-05-07 03:59 | 42.38466 | -57.08768 | 39388 ft | 502 kts | 83° |
| 2026-05-07 04:00 | 42.39552 | -56.99485 | 39397 ft | 501 kts | 83° |
| 2026-05-07 04:00 | 42.40635 | -56.90187 | 39401 ft | 502 kts | 84° |
| 2026-05-07 04:01 | 42.41720 | -56.80857 | 39405 ft | 505 kts | 83° |
| 2026-05-07 04:01 | 42.42810 | -56.71514 | 39403 ft | 505 kts | 83° |
| 2026-05-07 04:02 | 42.43893 | -56.62109 | 39405 ft | 507 kts | 84° |
| 2026-05-07 04:02 | 42.44966 | -56.52713 | 39409 ft | 510 kts | 84° |
| 2026-05-07 04:03 | 42.46044 | -56.43197 | 39414 ft | 510 kts | 84° |
| 2026-05-07 04:03 | 42.47105 | -56.33730 | 39411 ft | 511 kts | 84° |
| 2026-05-07 04:04 | 42.48163 | -56.24273 | 39412 ft | 514 kts | 85° |
| 2026-05-07 04:04 | 42.49220 | -56.14701 | 39409 ft | 515 kts | 85° |
| 2026-05-07 04:05 | 42.50267 | -56.05133 | 39421 ft | 515 kts | 85° |
| 2026-05-07 04:05 | 42.51316 | -55.95533 | 39419 ft | 517 kts | 85° |
| 2026-05-07 04:06 | 42.52353 | -55.85922 | 39427 ft | 519 kts | 85° |
| 2026-05-07 04:06 | 42.53376 | -55.76309 | 39422 ft | 518 kts | 85° |
| 2026-05-07 04:07 | 42.54413 | -55.66595 | 39432 ft | 521 kts | 85° |
| 2026-05-07 04:07 | 42.55432 | -55.56902 | 39432 ft | 522 kts | 85° |
| 2026-05-07 04:08 | 42.56438 | -55.47205 | 39435 ft | 522 kts | 85° |
| 2026-05-07 04:08 | 42.57446 | -55.37452 | 39441 ft | 522 kts | 85° |
| 2026-05-07 04:09 | 42.58453 | -55.27745 | 39434 ft | 522 kts | 86° |
| 2026-05-07 04:09 | 42.59442 | -55.18001 | 39435 ft | 525 kts | 86° |
| 2026-05-07 04:10 | 42.60442 | -55.08263 | 39437 ft | 524 kts | 86° |
| 2026-05-07 04:10 | 42.61427 | -54.98477 | 39436 ft | 525 kts | 86° |
| 2026-05-07 04:11 | 42.62383 | -54.88681 | 39439 ft | 527 kts | 86° |
| 2026-05-07 04:11 | 42.63350 | -54.78827 | 39445 ft | 527 kts | 86° |
| 2026-05-07 04:12 | 42.64307 | -54.68977 | 39446 ft | 528 kts | 86° |
| 2026-05-07 04:12 | 42.65245 | -54.59161 | 39441 ft | 528 kts | 86° |
| 2026-05-07 04:13 | 42.66198 | -54.49314 | 39449 ft | 528 kts | 86° |
| 2026-05-07 04:13 | 42.67142 | -54.39413 | 39457 ft | 529 kts | 86° |
| 2026-05-07 04:14 | 42.68066 | -54.29521 | 39459 ft | 528 kts | 87° |
| 2026-05-07 04:14 | 42.68980 | -54.19633 | 39453 ft | 530 kts | 87° |
| 2026-05-07 04:15 | 42.69886 | -54.09761 | 39462 ft | 531 kts | 86° |
| 2026-05-07 04:15 | 42.70805 | -53.99804 | 39461 ft | 532 kts | 86° |
| 2026-05-07 04:16 | 42.71716 | -53.89879 | 39466 ft | 531 kts | 87° |
| 2026-05-07 04:16 | 42.72574 | -53.79891 | 39468 ft | 532 kts | 86° |
| 2026-05-07 04:17 | 42.73454 | -53.69944 | 39472 ft | 532 kts | 85° |
| 2026-05-07 04:17 | 42.74336 | -53.59927 | 39463 ft | 533 kts | 85° |
| 2026-05-07 04:18 | 42.75233 | -53.49962 | 39474 ft | 534 kts | 86° |
| 2026-05-07 04:18 | 42.76062 | -53.39907 | 39466 ft | 533 kts | 85° |
| 2026-05-07 04:19 | 42.76929 | -53.29927 | 39459 ft | 534 kts | 87° |
| 2026-05-07 04:19 | 42.77767 | -53.19857 | 39470 ft | 535 kts | 86° |
| 2026-05-07 04:20 | 42.78609 | -53.09793 | 39491 ft | 536 kts | 86° |
| 2026-05-07 04:20 | 42.79439 | -52.99769 | 39492 ft | 536 kts | 86° |
| 2026-05-07 04:21 | 42.80660 | -52.84656 | 39478 ft | 538 kts | 86° |
| 2026-05-07 04:21 | 42.81483 | -52.74507 | 39501 ft | 538 kts | 86° |
| 2026-05-07 04:22 | 42.82270 | -52.64427 | 39484 ft | 537 kts | 85° |
| 2026-05-07 04:22 | 42.83031 | -52.54367 | 39479 ft | 536 kts | 85° |
| 2026-05-07 04:23 | 42.83825 | -52.44317 | 39492 ft | 536 kts | 85° |
| 2026-05-07 04:23 | 42.84635 | -52.34209 | 39493 ft | 535 kts | 88° |
| 2026-05-07 04:24 | 42.85376 | -52.24198 | 39494 ft | 535 kts | 87° |
| 2026-05-07 04:24 | 42.86086 | -52.14115 | 39493 ft | 535 kts | 86° |
| 2026-05-07 04:25 | 42.86859 | -52.04002 | 39496 ft | 536 kts | 87° |
| 2026-05-07 04:25 | 42.87591 | -51.93952 | 39496 ft | 536 kts | 87° |
| 2026-05-07 04:26 | 42.88311 | -51.83882 | 39501 ft | 536 kts | 87° |
| 2026-05-07 04:26 | 42.89054 | -51.73807 | 39501 ft | 535 kts | 87° |
| 2026-05-07 04:27 | 42.89749 | -51.63678 | 39518 ft | 535 kts | 87° |
| 2026-05-07 04:27 | 42.90428 | -51.53643 | 39531 ft | 535 kts | 86° |
| 2026-05-07 04:28 | 42.91138 | -51.43532 | 39525 ft | 536 kts | 87° |
| 2026-05-07 04:28 | 42.91815 | -51.33452 | 39524 ft | 535 kts | 88° |
| 2026-05-07 04:29 | 42.92455 | -51.23363 | 39513 ft | 536 kts | 87° |
| 2026-05-07 04:29 | 42.93136 | -51.13277 | 39523 ft | 536 kts | 87° |
| 2026-05-07 04:30 | 42.93809 | -51.03191 | 39527 ft | 537 kts | 87° |
| 2026-05-07 04:30 | 42.94449 | -50.93030 | 39525 ft | 537 kts | 86° |
| 2026-05-07 04:31 | 42.95093 | -50.82902 | 39525 ft | 536 kts | 87° |
| 2026-05-07 04:31 | 42.95703 | -50.72763 | 39525 ft | 537 kts | 86° |
| 2026-05-07 04:32 | 42.96346 | -50.62706 | 39518 ft | 537 kts | 86° |
| 2026-05-07 04:32 | 42.96970 | -50.52580 | 39525 ft | 536 kts | 87° |
| 2026-05-07 04:33 | 42.97520 | -50.42656 | 39520 ft | 536 kts | 85° |
| 2026-05-07 04:33 | 42.98119 | -50.32539 | 39516 ft | 536 kts | 86° |
| 2026-05-07 04:34 | 42.98722 | -50.22403 | 39536 ft | 537 kts | 87° |
| 2026-05-07 04:34 | 42.99303 | -50.12336 | 39535 ft | 537 kts | 87° |
| 2026-05-07 04:35 | 42.99860 | -50.02174 | 39537 ft | 537 kts | 88° |
| 2026-05-07 04:35 | 42.99968 | -49.92029 | 39541 ft | 537 kts | 92° |
| 2026-05-07 04:36 | 42.99866 | -49.81840 | 39535 ft | 537 kts | 92° |
| 2026-05-07 04:36 | 42.99765 | -49.71686 | 39542 ft | 539 kts | 92° |
| 2026-05-07 04:37 | 42.99662 | -49.61467 | 39541 ft | 539 kts | 92° |
| 2026-05-07 04:37 | 42.99564 | -49.51296 | 39540 ft | 538 kts | 92° |
| 2026-05-07 04:38 | 42.99453 | -49.41100 | 39546 ft | 539 kts | 92° |
| 2026-05-07 04:38 | 42.99331 | -49.30900 | 39543 ft | 539 kts | 92° |
| 2026-05-07 04:39 | 42.99204 | -49.20706 | 39546 ft | 541 kts | 92° |
| 2026-05-07 04:39 | 42.99070 | -49.10503 | 39548 ft | 541 kts | 92° |
| 2026-05-07 04:40 | 42.98920 | -49.00277 | 39552 ft | 540 kts | 92° |
| 2026-05-07 04:40 | 42.98755 | -48.90054 | 39557 ft | 541 kts | 92° |
| 2026-05-07 04:41 | 42.98593 | -48.79785 | 39561 ft | 542 kts | 92° |
| 2026-05-07 04:41 | 42.98419 | -48.69551 | 39559 ft | 541 kts | 92° |
| 2026-05-07 04:42 | 42.98237 | -48.59321 | 39559 ft | 542 kts | 92° |
| 2026-05-07 04:42 | 42.98029 | -48.49007 | 39568 ft | 543 kts | 92° |
| 2026-05-07 04:43 | 42.97838 | -48.38782 | 39569 ft | 543 kts | 91° |
| 2026-05-07 04:43 | 42.97619 | -48.28488 | 39573 ft | 543 kts | 92° |
| 2026-05-07 04:44 | 42.97401 | -48.18233 | 39573 ft | 543 kts | 92° |
| 2026-05-07 04:44 | 42.97167 | -48.07926 | 39576 ft | 544 kts | 92° |
| 2026-05-07 04:45 | 42.96923 | -47.97626 | 39581 ft | 544 kts | 92° |
| 2026-05-07 04:45 | 42.96683 | -47.87341 | 39587 ft | 544 kts | 92° |
| 2026-05-07 04:46 | 42.96419 | -47.77099 | 39580 ft | 545 kts | 92° |
| 2026-05-07 04:46 | 42.96140 | -47.66763 | 39580 ft | 545 kts | 92° |
| 2026-05-07 04:47 | 42.95874 | -47.56490 | 39579 ft | 545 kts | 91° |
| 2026-05-07 04:47 | 42.95586 | -47.46177 | 39579 ft | 545 kts | 91° |
| 2026-05-07 04:48 | 42.95280 | -47.35876 | 39580 ft | 545 kts | 91° |
| 2026-05-07 04:48 | 42.94990 | -47.25622 | 39578 ft | 545 kts | 92° |
| 2026-05-07 04:49 | 42.94668 | -47.15251 | 39580 ft | 546 kts | 93° |
| 2026-05-07 04:49 | 42.94339 | -47.04985 | 39580 ft | 545 kts | 92° |
| 2026-05-07 04:50 | 42.94004 | -46.94654 | 39582 ft | 546 kts | 92° |
| 2026-05-07 04:50 | 42.93666 | -46.84391 | 39591 ft | 547 kts | 92° |
| 2026-05-07 04:51 | 42.93314 | -46.74047 | 39590 ft | 546 kts | 91° |
| 2026-05-07 04:51 | 42.92951 | -46.63747 | 39583 ft | 548 kts | 91° |
| 2026-05-07 04:52 | 42.92591 | -46.53414 | 39579 ft | 548 kts | 92° |
| 2026-05-07 04:52 | 42.92203 | -46.43080 | 39581 ft | 548 kts | 92° |
| 2026-05-07 04:53 | 42.91806 | -46.32692 | 39576 ft | 549 kts | 93° |
| 2026-05-07 04:53 | 42.91405 | -46.22380 | 39582 ft | 549 kts | 92° |
| 2026-05-07 04:54 | 42.90992 | -46.12002 | 39588 ft | 549 kts | 92° |
| 2026-05-07 04:54 | 42.90579 | -46.01627 | 39580 ft | 549 kts | 92° |
| 2026-05-07 04:55 | 42.90140 | -45.91252 | 39583 ft | 550 kts | 91° |
| 2026-05-07 04:55 | 42.89708 | -45.80913 | 39580 ft | 550 kts | 92° |
| 2026-05-07 04:56 | 42.89258 | -45.70542 | 39582 ft | 551 kts | 91° |
| 2026-05-07 04:56 | 42.88797 | -45.60159 | 39582 ft | 551 kts | 91° |
| 2026-05-07 04:57 | 42.88345 | -45.49773 | 39580 ft | 551 kts | 92° |
| 2026-05-07 04:57 | 42.87849 | -45.39394 | 39583 ft | 551 kts | 91° |
| 2026-05-07 04:58 | 42.87369 | -45.28955 | 39576 ft | 551 kts | 92° |
| 2026-05-07 04:58 | 42.86873 | -45.18589 | 39584 ft | 550 kts | 92° |
| 2026-05-07 04:59 | 42.86362 | -45.08210 | 39580 ft | 551 kts | 92° |
| 2026-05-07 04:59 | 42.85849 | -44.97894 | 39578 ft | 551 kts | 92° |
| 2026-05-07 05:00 | 42.85325 | -44.87497 | 39578 ft | 551 kts | 91° |
| 2026-05-07 05:00 | 42.84791 | -44.77122 | 39565 ft | 550 kts | 92° |
| 2026-05-07 05:01 | 42.84249 | -44.66739 | 39566 ft | 551 kts | 92° |
| 2026-05-07 05:01 | 42.83697 | -44.56385 | 39567 ft | 550 kts | 91° |
| 2026-05-07 05:02 | 42.83137 | -44.46050 | 39575 ft | 551 kts | 91° |
| 2026-05-07 05:02 | 42.82561 | -44.35682 | 39573 ft | 551 kts | 91° |
| 2026-05-07 05:03 | 42.81983 | -44.25272 | 39562 ft | 551 kts | 92° |
| 2026-05-07 05:03 | 42.81391 | -44.14894 | 39564 ft | 551 kts | 92° |
| 2026-05-07 05:04 | 42.80795 | -44.04563 | 39554 ft | 551 kts | 91° |
| 2026-05-07 05:04 | 42.80189 | -43.94167 | 39566 ft | 551 kts | 92° |
| 2026-05-07 05:05 | 42.79564 | -43.83773 | 39563 ft | 553 kts | 90° |
| 2026-05-07 05:05 | 42.78939 | -43.73439 | 39569 ft | 552 kts | 91° |
| 2026-05-07 05:06 | 42.78297 | -43.63059 | 39562 ft | 551 kts | 92° |
| 2026-05-07 05:06 | 42.77648 | -43.52648 | 39571 ft | 552 kts | 91° |
| 2026-05-07 05:07 | 42.76995 | -43.42308 | 39574 ft | 552 kts | 90° |
| 2026-05-07 05:07 | 42.76332 | -43.31992 | 39563 ft | 550 kts | 91° |
| 2026-05-07 05:08 | 42.75667 | -43.21628 | 39567 ft | 552 kts | 91° |
| 2026-05-07 05:08 | 42.74982 | -43.11299 | 39550 ft | 551 kts | 91° |
| 2026-05-07 05:09 | 42.74281 | -43.00941 | 39551 ft | 550 kts | 91° |
| 2026-05-07 05:09 | 42.73579 | -42.90628 | 39555 ft | 550 kts | 91° |
| 2026-05-07 05:10 | 42.72876 | -42.80292 | 39559 ft | 550 kts | 92° |
| 2026-05-07 05:10 | 42.72138 | -42.69938 | 39555 ft | 550 kts | 90° |
| 2026-05-07 05:11 | 42.71416 | -42.59619 | 39554 ft | 550 kts | 90° |
| 2026-05-07 05:11 | 42.70696 | -42.49297 | 39551 ft | 550 kts | 92° |
| 2026-05-07 05:12 | 42.69932 | -42.38974 | 39548 ft | 551 kts | 91° |
| 2026-05-07 05:12 | 42.69181 | -42.28673 | 39552 ft | 551 kts | 92° |
| 2026-05-07 05:13 | 42.68420 | -42.18372 | 39551 ft | 550 kts | 92° |
| 2026-05-07 05:13 | 42.67640 | -42.08109 | 39548 ft | 550 kts | 92° |
| 2026-05-07 05:14 | 42.66847 | -41.97760 | 39543 ft | 550 kts | 91° |
| 2026-05-07 05:14 | 42.66053 | -41.87463 | 39543 ft | 550 kts | 91° |
| 2026-05-07 05:15 | 42.65253 | -41.77137 | 39535 ft | 553 kts | 91° |
| 2026-05-07 05:15 | 42.64442 | -41.66811 | 39531 ft | 552 kts | 92° |
| 2026-05-07 05:16 | 42.63611 | -41.56477 | 39526 ft | 552 kts | 90° |
| 2026-05-07 05:16 | 42.62782 | -41.46149 | 39524 ft | 553 kts | 91° |
| 2026-05-07 05:17 | 42.61934 | -41.35800 | 39527 ft | 553 kts | 90° |
| 2026-05-07 05:17 | 42.61086 | -41.25497 | 39514 ft | 554 kts | 91° |
| 2026-05-07 05:18 | 42.60222 | -41.15162 | 39520 ft | 553 kts | 92° |
| 2026-05-07 05:18 | 42.59359 | -41.04807 | 39513 ft | 553 kts | 92° |
| 2026-05-07 05:19 | 42.58458 | -40.94413 | 39519 ft | 554 kts | 91° |
| 2026-05-07 05:19 | 42.57571 | -40.84114 | 39516 ft | 552 kts | 91° |
| 2026-05-07 05:20 | 42.56675 | -40.73794 | 39520 ft | 551 kts | 91° |
| 2026-05-07 05:20 | 42.55772 | -40.63580 | 39515 ft | 548 kts | 91° |
| 2026-05-07 05:21 | 42.54410 | -40.48242 | 39519 ft | 548 kts | 90° |
| 2026-05-07 05:22 | 42.53497 | -40.38015 | 39522 ft | 546 kts | 91° |
| 2026-05-07 05:22 | 42.52586 | -40.27877 | 39515 ft | 545 kts | 92° |
| 2026-05-07 05:23 | 42.51634 | -40.17758 | 39504 ft | 544 kts | 93° |
| 2026-05-07 05:23 | 42.50686 | -40.07610 | 39503 ft | 543 kts | 92° |
| 2026-05-07 05:24 | 42.49725 | -39.97492 | 39497 ft | 541 kts | 92° |
| 2026-05-07 05:24 | 42.48692 | -39.87492 | 39496 ft | 542 kts | 94° |
| 2026-05-07 05:25 | 42.47611 | -39.77395 | 39495 ft | 542 kts | 93° |
| 2026-05-07 05:25 | 42.46529 | -39.67340 | 39490 ft | 541 kts | 92° |
| 2026-05-07 05:26 | 42.45461 | -39.57354 | 39485 ft | 539 kts | 94° |
| 2026-05-07 05:26 | 42.44364 | -39.47304 | 39480 ft | 540 kts | 92° |
| 2026-05-07 05:27 | 42.43259 | -39.37279 | 39482 ft | 539 kts | 92° |
| 2026-05-07 05:27 | 42.42185 | -39.27302 | 39479 ft | 538 kts | 93° |
| 2026-05-07 05:28 | 42.41089 | -39.17329 | 39473 ft | 539 kts | 94° |
| 2026-05-07 05:28 | 42.39972 | -39.07355 | 39477 ft | 539 kts | 94° |
| 2026-05-07 05:29 | 42.38832 | -38.97359 | 39480 ft | 538 kts | 92° |
| 2026-05-07 05:29 | 42.37700 | -38.87369 | 39474 ft | 538 kts | 92° |
| 2026-05-07 05:30 | 42.36574 | -38.77385 | 39483 ft | 539 kts | 93° |
| 2026-05-07 05:30 | 42.35437 | -38.67490 | 39467 ft | 538 kts | 93° |
| 2026-05-07 05:31 | 42.34276 | -38.57479 | 39456 ft | 537 kts | 94° |
| 2026-05-07 05:31 | 42.33114 | -38.47616 | 39449 ft | 534 kts | 94° |
| 2026-05-07 05:32 | 42.31933 | -38.37731 | 39449 ft | 533 kts | 93° |
| 2026-05-07 05:32 | 42.30763 | -38.27863 | 39440 ft | 534 kts | 94° |
| 2026-05-07 05:33 | 42.29590 | -38.17972 | 39444 ft | 533 kts | 94° |
| 2026-05-07 05:33 | 42.28409 | -38.08192 | 39430 ft | 532 kts | 94° |
| 2026-05-07 05:34 | 42.27214 | -37.98350 | 39432 ft | 530 kts | 95° |
| 2026-05-07 05:34 | 42.26011 | -37.88628 | 39437 ft | 528 kts | 95° |
| 2026-05-07 05:35 | 42.24801 | -37.78831 | 39414 ft | 527 kts | 94° |
| 2026-05-07 05:35 | 42.23592 | -37.69142 | 39421 ft | 529 kts | 94° |
| 2026-05-07 05:36 | 42.22378 | -37.59371 | 39407 ft | 526 kts | 94° |
| 2026-05-07 05:36 | 42.21167 | -37.49731 | 39390 ft | 526 kts | 94° |
| 2026-05-07 05:37 | 42.19934 | -37.40049 | 39396 ft | 525 kts | 94° |
| 2026-05-07 05:37 | 42.18693 | -37.30387 | 39414 ft | 525 kts | 95° |
| 2026-05-07 05:38 | 42.17446 | -37.20717 | 39394 ft | 524 kts | 95° |
| 2026-05-07 05:38 | 42.16194 | -37.11073 | 39396 ft | 523 kts | 94° |
| 2026-05-07 05:39 | 42.14938 | -37.01414 | 39384 ft | 523 kts | 95° |
| 2026-05-07 05:39 | 42.13671 | -36.91797 | 39398 ft | 523 kts | 95° |
| 2026-05-07 05:40 | 42.12406 | -36.82231 | 39407 ft | 522 kts | 94° |
| 2026-05-07 05:40 | 42.11127 | -36.72615 | 39356 ft | 523 kts | 95° |
| 2026-05-07 05:41 | 42.09841 | -36.63002 | 39396 ft | 524 kts | 95° |
| 2026-05-07 05:41 | 42.08544 | -36.53407 | 39406 ft | 524 kts | 95° |
| 2026-05-07 05:42 | 42.07236 | -36.43791 | 39401 ft | 524 kts | 95° |
| 2026-05-07 05:42 | 42.05914 | -36.34114 | 39401 ft | 525 kts | 95° |
| 2026-05-07 05:43 | 42.04592 | -36.24497 | 39391 ft | 525 kts | 95° |
| 2026-05-07 05:43 | 42.03259 | -36.14884 | 39385 ft | 525 kts | 95° |
| 2026-05-07 05:44 | 42.01919 | -36.05276 | 39367 ft | 525 kts | 95° |
| 2026-05-07 05:44 | 42.00570 | -35.95658 | 39353 ft | 526 kts | 95° |
| 2026-05-07 05:45 | 41.99215 | -35.86064 | 39356 ft | 526 kts | 95° |
| 2026-05-07 05:45 | 41.97847 | -35.76448 | 39351 ft | 525 kts | 95° |
| 2026-05-07 05:46 | 41.96472 | -35.66829 | 39346 ft | 525 kts | 95° |
| 2026-05-07 05:46 | 41.95090 | -35.57223 | 39351 ft | 527 kts | 95° |
| 2026-05-07 05:47 | 41.93693 | -35.47566 | 39340 ft | 527 kts | 95° |
| 2026-05-07 05:47 | 41.92292 | -35.37943 | 39348 ft | 527 kts | 95° |
| 2026-05-07 05:48 | 41.90890 | -35.28365 | 39339 ft | 528 kts | 96° |
| 2026-05-07 05:48 | 41.89470 | -35.18733 | 39339 ft | 529 kts | 95° |
| 2026-05-07 05:49 | 41.88035 | -35.09089 | 39342 ft | 528 kts | 95° |
| 2026-05-07 05:49 | 41.86602 | -34.99479 | 39329 ft | 527 kts | 95° |
| 2026-05-07 05:50 | 41.85164 | -34.89892 | 39315 ft | 527 kts | 95° |
| 2026-05-07 05:50 | 41.83715 | -34.80299 | 39323 ft | 527 kts | 95° |
| 2026-05-07 05:51 | 41.82260 | -34.70717 | 39306 ft | 527 kts | 95° |
| 2026-05-07 05:51 | 41.80786 | -34.61066 | 39298 ft | 528 kts | 95° |
| 2026-05-07 05:52 | 41.79316 | -34.51492 | 39314 ft | 528 kts | 95° |
| 2026-05-07 05:52 | 41.77832 | -34.41913 | 39307 ft | 528 kts | 95° |
| 2026-05-07 05:53 | 41.76336 | -34.32282 | 39300 ft | 528 kts | 96° |
| 2026-05-07 05:53 | 41.74839 | -34.22707 | 39307 ft | 528 kts | 96° |
| 2026-05-07 05:54 | 41.73327 | -34.13096 | 39290 ft | 529 kts | 96° |
| 2026-05-07 05:54 | 41.71816 | -34.03550 | 39258 ft | 529 kts | 96° |
| 2026-05-07 05:55 | 41.70277 | -33.93893 | 39290 ft | 529 kts | 96° |
| 2026-05-07 05:55 | 41.68745 | -33.84318 | 39296 ft | 530 kts | 96° |
| 2026-05-07 05:56 | 41.67189 | -33.74657 | 39296 ft | 532 kts | 96° |
| 2026-05-07 05:56 | 41.65631 | -33.65054 | 39313 ft | 530 kts | 96° |
| 2026-05-07 05:57 | 41.64068 | -33.55456 | 39293 ft | 529 kts | 96° |
| 2026-05-07 05:57 | 41.62505 | -33.45910 | 39278 ft | 529 kts | 96° |
| 2026-05-07 05:58 | 41.60927 | -33.36325 | 39278 ft | 529 kts | 96° |
| 2026-05-07 05:58 | 41.59353 | -33.26806 | 39281 ft | 530 kts | 97° |
| 2026-05-07 05:59 | 41.57753 | -33.17203 | 39283 ft | 529 kts | 97° |
| 2026-05-07 05:59 | 41.56147 | -33.07650 | 39265 ft | 529 kts | 97° |
| 2026-05-07 06:00 | 41.54552 | -32.98150 | 39269 ft | 529 kts | 97° |
| 2026-05-07 06:00 | 41.52948 | -32.88592 | 39262 ft | 528 kts | 97° |
| 2026-05-07 06:01 | 41.51324 | -32.79065 | 39248 ft | 529 kts | 97° |
| 2026-05-07 06:01 | 41.49687 | -32.69546 | 39249 ft | 529 kts | 97° |
| 2026-05-07 06:02 | 41.48059 | -32.60038 | 39232 ft | 529 kts | 97° |
| 2026-05-07 06:02 | 41.46424 | -32.50528 | 39253 ft | 528 kts | 97° |
| 2026-05-07 06:03 | 41.44768 | -32.41022 | 39233 ft | 528 kts | 97° |
| 2026-05-07 06:03 | 41.43104 | -32.31510 | 39237 ft | 528 kts | 98° |
| 2026-05-07 06:04 | 41.41458 | -32.22064 | 39242 ft | 527 kts | 98° |
| 2026-05-07 06:04 | 41.39778 | -32.12600 | 39227 ft | 527 kts | 99° |
| 2026-05-07 06:05 | 41.38085 | -32.03106 | 39214 ft | 526 kts | 98° |
| 2026-05-07 06:05 | 41.36388 | -31.93633 | 39246 ft | 526 kts | 98° |
| 2026-05-07 06:06 | 41.34703 | -31.84191 | 39243 ft | 525 kts | 98° |
| 2026-05-07 06:06 | 41.33018 | -31.74813 | 39245 ft | 526 kts | 98° |
| 2026-05-07 06:07 | 41.31312 | -31.65365 | 39224 ft | 526 kts | 98° |
| 2026-05-07 06:07 | 41.29593 | -31.55946 | 39225 ft | 525 kts | 98° |
| 2026-05-07 06:08 | 41.27879 | -31.46589 | 39216 ft | 524 kts | 98° |
| 2026-05-07 06:08 | 41.26165 | -31.37227 | 39214 ft | 523 kts | 98° |
| 2026-05-07 06:09 | 41.24439 | -31.27892 | 39199 ft | 523 kts | 99° |
| 2026-05-07 06:09 | 41.22703 | -31.18568 | 39203 ft | 523 kts | 99° |
| 2026-05-07 06:10 | 41.20952 | -31.09194 | 39215 ft | 522 kts | 99° |
| 2026-05-07 06:10 | 41.19218 | -30.99942 | 39206 ft | 522 kts | 99° |
| 2026-05-07 06:11 | 41.17461 | -30.90603 | 39202 ft | 522 kts | 99° |
| 2026-05-07 06:11 | 41.15705 | -30.81310 | 39179 ft | 521 kts | 99° |
| 2026-05-07 06:12 | 41.13926 | -30.71977 | 39189 ft | 522 kts | 99° |
| 2026-05-07 06:12 | 41.12155 | -30.62702 | 39177 ft | 521 kts | 99° |
| 2026-05-07 06:13 | 41.10375 | -30.53416 | 39190 ft | 521 kts | 99° |
| 2026-05-07 06:13 | 41.08588 | -30.44145 | 39175 ft | 521 kts | 99° |
| 2026-05-07 06:14 | 41.06794 | -30.34879 | 39179 ft | 520 kts | 100° |
| 2026-05-07 06:14 | 41.04998 | -30.25639 | 39173 ft | 521 kts | 100° |
| 2026-05-07 06:15 | 41.03199 | -30.16398 | 39155 ft | 521 kts | 100° |
| 2026-05-07 06:15 | 41.01400 | -30.07200 | 39162 ft | 519 kts | 99° |
| 2026-05-07 06:16 | 40.99784 | -29.97924 | 39157 ft | 516 kts | 95° |
| 2026-05-07 06:16 | 40.98724 | -29.88545 | 39157 ft | 515 kts | 92° |
| 2026-05-07 06:17 | 40.97756 | -29.79230 | 39151 ft | 514 kts | 92° |
| 2026-05-07 06:17 | 40.96780 | -29.69881 | 39137 ft | 515 kts | 93° |
| 2026-05-07 06:18 | 40.95777 | -29.60516 | 39148 ft | 514 kts | 93° |
| 2026-05-07 06:18 | 40.94767 | -29.51196 | 39137 ft | 514 kts | 93° |
| 2026-05-07 06:19 | 40.93753 | -29.41918 | 39138 ft | 514 kts | 93° |
| 2026-05-07 06:19 | 40.92730 | -29.32578 | 39143 ft | 514 kts | 94° |
| 2026-05-07 06:20 | 40.91694 | -29.23228 | 39136 ft | 514 kts | 94° |
| 2026-05-07 06:20 | 40.90663 | -29.13969 | 39122 ft | 514 kts | 94° |
| 2026-05-07 06:21 | 40.89616 | -29.04649 | 39123 ft | 515 kts | 94° |
| 2026-05-07 06:21 | 40.88558 | -28.95301 | 39143 ft | 513 kts | 95° |
| 2026-05-07 06:22 | 40.87498 | -28.86007 | 39108 ft | 513 kts | 95° |
| 2026-05-07 06:22 | 40.85893 | -28.72085 | 39121 ft | 513 kts | 94° |
| 2026-05-07 06:23 | 40.84816 | -28.62773 | 39119 ft | 512 kts | 94° |
| 2026-05-07 06:23 | 40.83735 | -28.53511 | 39114 ft | 513 kts | 94° |
| 2026-05-07 06:24 | 40.82643 | -28.44235 | 39099 ft | 512 kts | 95° |
| 2026-05-07 06:24 | 40.81552 | -28.35001 | 39096 ft | 512 kts | 94° |
| 2026-05-07 06:25 | 40.80443 | -28.25749 | 39095 ft | 513 kts | 95° |
| 2026-05-07 06:25 | 40.79332 | -28.16488 | 39089 ft | 513 kts | 95° |
| 2026-05-07 06:26 | 40.78215 | -28.07273 | 39093 ft | 513 kts | 95° |
| 2026-05-07 06:26 | 40.77089 | -27.98009 | 39100 ft | 513 kts | 96° |
| 2026-05-07 06:27 | 40.75953 | -27.88768 | 39080 ft | 513 kts | 95° |
| 2026-05-07 06:27 | 40.74812 | -27.79523 | 39079 ft | 512 kts | 96° |
| 2026-05-07 06:28 | 40.73658 | -27.70288 | 39081 ft | 511 kts | 96° |
| 2026-05-07 06:28 | 40.72503 | -27.61062 | 39079 ft | 512 kts | 96° |
| 2026-05-07 06:29 | 40.71346 | -27.51877 | 39084 ft | 510 kts | 96° |
| 2026-05-07 06:29 | 40.70182 | -27.42714 | 39086 ft | 510 kts | 96° |
| 2026-05-07 06:30 | 40.69008 | -27.33531 | 39070 ft | 510 kts | 97° |
| 2026-05-07 06:30 | 40.67822 | -27.24321 | 39079 ft | 510 kts | 97° |
| 2026-05-07 06:31 | 40.66634 | -27.15132 | 39070 ft | 511 kts | 97° |
| 2026-05-07 06:31 | 40.65437 | -27.05951 | 39065 ft | 510 kts | 97° |
| 2026-05-07 06:32 | 40.64235 | -26.96794 | 39070 ft | 509 kts | 97° |
| 2026-05-07 06:32 | 40.63026 | -26.87644 | 39073 ft | 508 kts | 97° |
| 2026-05-07 06:33 | 40.61820 | -26.78554 | 39066 ft | 507 kts | 97° |
| 2026-05-07 06:33 | 40.60600 | -26.69431 | 39064 ft | 507 kts | 97° |
| 2026-05-07 06:34 | 40.59374 | -26.60313 | 39059 ft | 507 kts | 97° |
| 2026-05-07 06:34 | 40.58145 | -26.51240 | 39065 ft | 507 kts | 97° |
| 2026-05-07 06:35 | 40.56910 | -26.42166 | 39052 ft | 505 kts | 97° |
| 2026-05-07 06:35 | 40.55673 | -26.33131 | 39051 ft | 506 kts | 98° |
| 2026-05-07 06:36 | 40.54422 | -26.24056 | 39040 ft | 505 kts | 98° |
| 2026-05-07 06:36 | 40.53160 | -26.14966 | 39041 ft | 505 kts | 98° |
| 2026-05-07 06:37 | 40.51907 | -26.05985 | 39037 ft | 505 kts | 98° |
| 2026-05-07 06:37 | 40.50639 | -25.96942 | 39034 ft | 504 kts | 98° |
| 2026-05-07 06:38 | 40.49358 | -25.87877 | 39036 ft | 503 kts | 98° |
| 2026-05-07 06:38 | 40.48085 | -25.78915 | 39038 ft | 502 kts | 98° |
| 2026-05-07 06:39 | 40.46802 | -25.69918 | 39035 ft | 502 kts | 98° |
| 2026-05-07 06:39 | 40.45514 | -25.60953 | 39037 ft | 502 kts | 98° |
| 2026-05-07 06:40 | 40.44213 | -25.51951 | 39036 ft | 501 kts | 98° |
| 2026-05-07 06:40 | 40.42913 | -25.43010 | 39036 ft | 501 kts | 98° |
| 2026-05-07 06:41 | 40.41611 | -25.34096 | 39041 ft | 501 kts | 99° |
| 2026-05-07 06:41 | 40.40293 | -25.25120 | 39037 ft | 501 kts | 99° |
| 2026-05-07 06:42 | 40.38971 | -25.16175 | 39037 ft | 501 kts | 99° |
| 2026-05-07 06:42 | 40.37650 | -25.07290 | 39045 ft | 500 kts | 99° |
| 2026-05-07 06:43 | 40.36309 | -24.98320 | 39039 ft | 500 kts | 99° |
| 2026-05-07 06:43 | 40.34975 | -24.89437 | 39034 ft | 500 kts | 99° |
| 2026-05-07 06:44 | 40.33631 | -24.80536 | 39030 ft | 499 kts | 100° |
| 2026-05-07 06:44 | 40.32282 | -24.71660 | 39028 ft | 499 kts | 100° |
| 2026-05-07 06:45 | 40.30920 | -24.62742 | 39029 ft | 498 kts | 100° |
| 2026-05-07 06:45 | 40.29558 | -24.53875 | 39029 ft | 498 kts | 100° |
| 2026-05-07 06:46 | 40.28192 | -24.45028 | 39025 ft | 498 kts | 100° |
| 2026-05-07 06:46 | 40.26823 | -24.36209 | 39021 ft | 498 kts | 100° |
| 2026-05-07 06:47 | 40.25443 | -24.27360 | 39018 ft | 498 kts | 101° |
| 2026-05-07 06:47 | 40.24050 | -24.18481 | 39018 ft | 497 kts | 101° |
| 2026-05-07 06:48 | 40.22662 | -24.09679 | 39022 ft | 498 kts | 101° |
| 2026-05-07 06:48 | 40.21258 | -24.00826 | 39021 ft | 497 kts | 102° |
| 2026-05-07 06:49 | 40.19853 | -23.92012 | 39022 ft | 496 kts | 102° |
| 2026-05-07 06:49 | 40.18442 | -23.83210 | 39021 ft | 496 kts | 102° |
| 2026-05-07 06:50 | 40.17027 | -23.74418 | 39027 ft | 495 kts | 102° |
| 2026-05-07 06:50 | 40.15597 | -23.65584 | 39037 ft | 496 kts | 102° |
| 2026-05-07 06:51 | 40.14169 | -23.56802 | 39040 ft | 496 kts | 102° |
| 2026-05-07 06:51 | 40.12735 | -23.48023 | 39041 ft | 496 kts | 102° |
| 2026-05-07 06:52 | 40.11290 | -23.39225 | 39043 ft | 496 kts | 102° |
| 2026-05-07 06:52 | 40.09848 | -23.30495 | 39042 ft | 495 kts | 103° |
| 2026-05-07 06:53 | 40.08391 | -23.21718 | 39043 ft | 495 kts | 103° |
| 2026-05-07 06:53 | 40.06930 | -23.12961 | 39042 ft | 495 kts | 103° |
| 2026-05-07 06:54 | 40.05462 | -23.04203 | 39042 ft | 495 kts | 103° |
| 2026-05-07 06:54 | 40.03982 | -22.95431 | 39042 ft | 495 kts | 103° |
| 2026-05-07 06:55 | 40.02501 | -22.86669 | 39051 ft | 496 kts | 103° |
| 2026-05-07 06:55 | 40.01017 | -22.77938 | 39059 ft | 496 kts | 103° |
| 2026-05-07 06:56 | 39.99519 | -22.69170 | 39054 ft | 496 kts | 103° |
| 2026-05-07 06:56 | 39.98021 | -22.60457 | 39048 ft | 495 kts | 103° |
| 2026-05-07 06:57 | 39.96515 | -22.51730 | 39056 ft | 495 kts | 103° |
| 2026-05-07 06:57 | 39.95001 | -22.42998 | 39057 ft | 495 kts | 104° |
| 2026-05-07 06:58 | 39.93486 | -22.34292 | 39058 ft | 495 kts | 104° |
| 2026-05-07 06:58 | 39.91952 | -22.25529 | 39059 ft | 495 kts | 104° |
| 2026-05-07 06:59 | 39.90420 | -22.16820 | 39061 ft | 495 kts | 104° |
| 2026-05-07 06:59 | 39.88881 | -22.08114 | 39067 ft | 497 kts | 104° |
| 2026-05-07 07:00 | 39.87331 | -21.99376 | 39071 ft | 496 kts | 105° |
| 2026-05-07 07:00 | 39.85774 | -21.90645 | 39081 ft | 494 kts | 105° |
| 2026-05-07 07:01 | 39.84216 | -21.81957 | 39075 ft | 494 kts | 105° |
| 2026-05-07 07:01 | 39.82658 | -21.73306 | 39088 ft | 495 kts | 105° |
| 2026-05-07 07:02 | 39.81086 | -21.64612 | 39077 ft | 494 kts | 105° |
| 2026-05-07 07:02 | 39.79513 | -21.55953 | 39068 ft | 494 kts | 105° |
| 2026-05-07 07:03 | 39.77932 | -21.47294 | 39070 ft | 494 kts | 105° |
| 2026-05-07 07:03 | 39.76349 | -21.38650 | 39077 ft | 493 kts | 105° |
| 2026-05-07 07:04 | 39.74765 | -21.30039 | 39058 ft | 492 kts | 106° |
| 2026-05-07 07:04 | 39.73163 | -21.21372 | 39068 ft | 492 kts | 106° |
| 2026-05-07 07:05 | 39.71561 | -21.12761 | 39075 ft | 493 kts | 106° |
| 2026-05-07 07:05 | 39.69960 | -21.04186 | 39079 ft | 491 kts | 106° |
| 2026-05-07 07:06 | 39.68354 | -20.95613 | 39091 ft | 491 kts | 106° |
| 2026-05-07 07:06 | 39.66729 | -20.86975 | 39107 ft | 493 kts | 106° |
| 2026-05-07 07:07 | 39.65110 | -20.78410 | 39094 ft | 492 kts | 106° |
| 2026-05-07 07:07 | 39.63473 | -20.69792 | 39090 ft | 493 kts | 106° |
| 2026-05-07 07:08 | 39.61837 | -20.61190 | 39091 ft | 493 kts | 106° |
| 2026-05-07 07:08 | 39.60194 | -20.52608 | 39093 ft | 492 kts | 106° |
| 2026-05-07 07:09 | 39.58555 | -20.44078 | 39099 ft | 492 kts | 106° |
| 2026-05-07 07:09 | 39.56899 | -20.35500 | 39092 ft | 491 kts | 106° |
| 2026-05-07 07:10 | 39.55244 | -20.26958 | 39099 ft | 490 kts | 107° |
| 2026-05-07 07:10 | 39.53577 | -20.18377 | 39092 ft | 491 kts | 107° |
| 2026-05-07 07:11 | 39.51920 | -20.09883 | 39124 ft | 490 kts | 107° |
| 2026-05-07 07:11 | 39.50328 | -20.01312 | 39109 ft | 491 kts | 104° |
| 2026-05-07 07:12 | 39.49345 | -19.92551 | 39117 ft | 493 kts | 98° |
| 2026-05-07 07:12 | 39.48656 | -19.83771 | 39114 ft | 494 kts | 98° |
| 2026-05-07 07:13 | 39.47968 | -19.75003 | 39133 ft | 493 kts | 98° |
| 2026-05-07 07:13 | 39.47264 | -19.66188 | 39114 ft | 493 kts | 98° |
| 2026-05-07 07:14 | 39.46548 | -19.57375 | 39122 ft | 493 kts | 98° |
| 2026-05-07 07:14 | 39.45828 | -19.48587 | 39124 ft | 493 kts | 98° |
| 2026-05-07 07:15 | 39.45100 | -19.39797 | 39111 ft | 494 kts | 98° |
| 2026-05-07 07:15 | 39.44362 | -19.30979 | 39107 ft | 493 kts | 99° |
| 2026-05-07 07:16 | 39.43618 | -19.22169 | 39105 ft | 493 kts | 99° |
| 2026-05-07 07:16 | 39.42871 | -19.13401 | 39114 ft | 492 kts | 99° |
| 2026-05-07 07:17 | 39.42119 | -19.04627 | 39104 ft | 493 kts | 99° |
| 2026-05-07 07:17 | 39.41356 | -18.95837 | 39100 ft | 494 kts | 99° |
| 2026-05-07 07:18 | 39.40593 | -18.87112 | 39117 ft | 494 kts | 99° |
| 2026-05-07 07:18 | 39.39818 | -18.78327 | 39119 ft | 494 kts | 99° |
| 2026-05-07 07:19 | 39.39036 | -18.69531 | 39142 ft | 494 kts | 99° |
| 2026-05-07 07:19 | 39.38245 | -18.60726 | 39110 ft | 494 kts | 99° |
| 2026-05-07 07:20 | 39.37450 | -18.51948 | 39114 ft | 494 kts | 99° |
| 2026-05-07 07:20 | 39.36649 | -18.43164 | 39126 ft | 493 kts | 99° |
| 2026-05-07 07:21 | 39.35842 | -18.34399 | 39126 ft | 493 kts | 100° |
| 2026-05-07 07:21 | 39.35028 | -18.25627 | 39130 ft | 493 kts | 100° |
| 2026-05-07 07:22 | 39.34208 | -18.16872 | 39113 ft | 494 kts | 100° |
| 2026-05-07 07:22 | 39.33378 | -18.08085 | 39136 ft | 495 kts | 100° |
| 2026-05-07 07:23 | 39.32536 | -17.99279 | 39128 ft | 496 kts | 100° |
| 2026-05-07 07:23 | 39.31690 | -17.90453 | 39122 ft | 496 kts | 99° |
| 2026-05-07 07:24 | 39.30843 | -17.81676 | 39128 ft | 495 kts | 100° |
| 2026-05-07 07:24 | 39.29987 | -17.72885 | 39128 ft | 495 kts | 100° |
| 2026-05-07 07:25 | 39.28684 | -17.59709 | 39122 ft | 496 kts | 100° |
| 2026-05-07 07:26 | 39.27802 | -17.50881 | 39129 ft | 496 kts | 100° |
| 2026-05-07 07:26 | 39.26923 | -17.42106 | 39141 ft | 497 kts | 100° |
| 2026-05-07 07:27 | 39.26037 | -17.33328 | 39128 ft | 496 kts | 101° |
| 2026-05-07 07:27 | 39.25137 | -17.24492 | 39114 ft | 497 kts | 101° |
| 2026-05-07 07:28 | 39.24235 | -17.15691 | 39119 ft | 497 kts | 101° |
| 2026-05-07 07:28 | 39.23325 | -17.06910 | 39146 ft | 497 kts | 101° |
| 2026-05-07 07:29 | 39.22404 | -16.98054 | 39125 ft | 497 kts | 101° |
| 2026-05-07 07:29 | 39.21481 | -16.89277 | 39127 ft | 498 kts | 100° |
| 2026-05-07 07:30 | 39.20549 | -16.80466 | 39129 ft | 498 kts | 100° |
| 2026-05-07 07:30 | 39.19609 | -16.71648 | 39128 ft | 499 kts | 100° |
| 2026-05-07 07:31 | 39.18662 | -16.62806 | 39122 ft | 498 kts | 100° |
| 2026-05-07 07:31 | 39.17715 | -16.54024 | 39122 ft | 498 kts | 100° |
| 2026-05-07 07:32 | 39.16755 | -16.45207 | 39132 ft | 499 kts | 100° |
| 2026-05-07 07:32 | 39.15783 | -16.36335 | 39120 ft | 499 kts | 100° |
| 2026-05-07 07:33 | 39.14805 | -16.27503 | 39127 ft | 499 kts | 101° |
| 2026-05-07 07:33 | 39.13823 | -16.18709 | 39132 ft | 501 kts | 101° |
| 2026-05-07 07:34 | 39.12827 | -16.09821 | 39129 ft | 502 kts | 101° |
| 2026-05-07 07:34 | 39.11834 | -16.00993 | 39127 ft | 502 kts | 101° |
| 2026-05-07 07:35 | 39.10822 | -15.92090 | 39132 ft | 503 kts | 101° |
| 2026-05-07 07:35 | 39.09809 | -15.83213 | 39133 ft | 503 kts | 101° |
| 2026-05-07 07:36 | 39.08794 | -15.74375 | 39128 ft | 502 kts | 101° |
| 2026-05-07 07:36 | 39.07762 | -15.65486 | 39133 ft | 503 kts | 101° |
| 2026-05-07 07:37 | 39.06729 | -15.56637 | 39130 ft | 503 kts | 100° |
| 2026-05-07 07:37 | 39.05688 | -15.47751 | 39134 ft | 503 kts | 100° |
| 2026-05-07 07:38 | 39.04638 | -15.38866 | 39132 ft | 504 kts | 101° |
| 2026-05-07 07:38 | 39.03582 | -15.29983 | 39134 ft | 504 kts | 101° |
| 2026-05-07 07:39 | 39.02532 | -15.21166 | 39137 ft | 503 kts | 101° |
| 2026-05-07 07:39 | 39.01462 | -15.12260 | 39133 ft | 503 kts | 101° |
| 2026-05-07 07:40 | 39.00390 | -15.03402 | 39136 ft | 503 kts | 101° |
| 2026-05-07 07:40 | 38.99557 | -14.94545 | 39130 ft | 504 kts | 97° |
| 2026-05-07 07:41 | 38.98929 | -14.85559 | 39123 ft | 504 kts | 96° |
| 2026-05-07 07:41 | 38.98305 | -14.76605 | 39124 ft | 505 kts | 96° |
| 2026-05-07 07:42 | 38.97673 | -14.67696 | 39122 ft | 505 kts | 96° |
| 2026-05-07 07:42 | 38.97022 | -14.58712 | 39128 ft | 506 kts | 96° |
| 2026-05-07 07:43 | 38.96368 | -14.49770 | 39125 ft | 505 kts | 96° |
| 2026-05-07 07:43 | 38.95705 | -14.40799 | 39124 ft | 506 kts | 96° |
| 2026-05-07 07:44 | 38.95040 | -14.31827 | 39118 ft | 506 kts | 96° |
| 2026-05-07 07:44 | 38.94362 | -14.22831 | 39121 ft | 506 kts | 96° |
| 2026-05-07 07:45 | 38.93678 | -14.13877 | 39124 ft | 507 kts | 96° |
| 2026-05-07 07:45 | 38.92987 | -14.04894 | 39124 ft | 507 kts | 96° |
| 2026-05-07 07:46 | 38.92296 | -13.95943 | 39122 ft | 507 kts | 96° |
| 2026-05-07 07:46 | 38.91591 | -13.86959 | 39111 ft | 507 kts | 96° |
| 2026-05-07 07:47 | 38.90880 | -13.77971 | 39108 ft | 507 kts | 95° |
| 2026-05-07 07:47 | 38.90167 | -13.69014 | 39105 ft | 507 kts | 95° |
| 2026-05-07 07:48 | 38.89444 | -13.60007 | 39102 ft | 506 kts | 95° |
| 2026-05-07 07:48 | 38.88760 | -13.51074 | 39102 ft | 506 kts | 91° |
| 2026-05-07 07:49 | 38.89116 | -13.42162 | 39103 ft | 502 kts | 77° |
| 2026-05-07 07:49 | 38.90992 | -13.33630 | 39101 ft | 497 kts | 64° |
| 2026-05-07 07:50 | 38.94150 | -13.25793 | 39104 ft | 495 kts | 55° |
| 2026-05-07 07:50 | 38.97614 | -13.18167 | 39102 ft | 494 kts | 55° |
| 2026-05-07 07:51 | 39.01045 | -13.10514 | 39101 ft | 493 kts | 56° |
| 2026-05-07 07:51 | 39.04427 | -13.02873 | 39101 ft | 493 kts | 56° |
| 2026-05-07 07:52 | 39.07780 | -12.95237 | 39105 ft | 493 kts | 55° |
| 2026-05-07 07:52 | 39.11162 | -12.87548 | 39105 ft | 492 kts | 56° |
| 2026-05-07 07:53 | 39.14511 | -12.79902 | 39102 ft | 491 kts | 56° |
| 2026-05-07 07:53 | 39.17844 | -12.72280 | 39100 ft | 491 kts | 56° |
| 2026-05-07 07:54 | 39.21184 | -12.64607 | 39103 ft | 490 kts | 56° |
| 2026-05-07 07:54 | 39.24482 | -12.57000 | 39106 ft | 489 kts | 56° |
| 2026-05-07 07:55 | 39.27788 | -12.49378 | 39099 ft | 488 kts | 56° |
| 2026-05-07 07:55 | 39.31092 | -12.41725 | 39101 ft | 487 kts | 56° |
| 2026-05-07 07:56 | 39.34381 | -12.34102 | 39104 ft | 486 kts | 57° |
| 2026-05-07 07:56 | 39.37338 | -12.26261 | 39096 ft | 494 kts | 69° |
| 2026-05-07 07:57 | 39.38312 | -12.17450 | 39099 ft | 500 kts | 91° |
| 2026-05-07 07:57 | 39.37895 | -12.13038 | 39105 ft | 501 kts | 102° |
| 2026-05-07 07:57 | 39.36890 | -12.08755 | 39101 ft | 501 kts | 110° |
| 2026-05-07 07:58 | 39.34278 | -12.00436 | 39103 ft | 501 kts | 112° |
| 2026-05-07 07:58 | 39.31644 | -11.92131 | 39107 ft | 500 kts | 111° |
| 2026-05-07 07:59 | 39.29073 | -11.83835 | 39097 ft | 500 kts | 111° |
| 2026-05-07 07:59 | 39.26491 | -11.75510 | 39099 ft | 500 kts | 111° |
| 2026-05-07 08:00 | 39.23927 | -11.67226 | 39096 ft | 499 kts | 111° |
| 2026-05-07 08:00 | 39.21355 | -11.58956 | 39093 ft | 498 kts | 110° |
| 2026-05-07 08:01 | 39.18790 | -11.50661 | 39090 ft | 498 kts | 111° |
| 2026-05-07 08:01 | 39.16216 | -11.42427 | 39094 ft | 497 kts | 111° |
| 2026-05-07 08:02 | 39.13627 | -11.34200 | 39088 ft | 497 kts | 111° |
| 2026-05-07 08:02 | 39.11041 | -11.25951 | 39083 ft | 497 kts | 111° |
| 2026-05-07 08:03 | 39.08501 | -11.17865 | 39084 ft | 497 kts | 111° |
| 2026-05-07 08:03 | 39.05912 | -11.09625 | 39084 ft | 496 kts | 111° |
| 2026-05-07 08:04 | 39.03316 | -11.01454 | 39080 ft | 496 kts | 111° |
| 2026-05-07 08:04 | 39.00713 | -10.93271 | 39081 ft | 495 kts | 111° |
| 2026-05-07 08:05 | 38.98111 | -10.85088 | 39080 ft | 495 kts | 111° |
| 2026-05-07 08:05 | 38.95513 | -10.76923 | 39082 ft | 496 kts | 111° |
| 2026-05-07 08:06 | 38.92913 | -10.68785 | 39080 ft | 496 kts | 111° |
| 2026-05-07 08:06 | 38.90255 | -10.60592 | 39077 ft | 497 kts | 111° |
| 2026-05-07 08:07 | 38.87625 | -10.52428 | 39082 ft | 497 kts | 111° |
| 2026-05-07 08:07 | 38.85021 | -10.44262 | 39076 ft | 496 kts | 111° |
| 2026-05-07 08:08 | 38.82388 | -10.36105 | 39077 ft | 497 kts | 111° |
| 2026-05-07 08:08 | 38.79780 | -10.27920 | 39086 ft | 497 kts | 112° |
| 2026-05-07 08:09 | 38.77163 | -10.19781 | 39082 ft | 497 kts | 112° |
| 2026-05-07 08:09 | 38.74516 | -10.11643 | 39089 ft | 497 kts | 112° |
| 2026-05-07 08:10 | 38.71870 | -10.03518 | 39080 ft | 496 kts | 112° |
| 2026-05-07 08:10 | 38.69262 | -9.95522 | 39080 ft | 497 kts | 111° |
| 2026-05-07 08:11 | 38.66615 | -9.87382 | 39068 ft | 496 kts | 111° |
| 2026-05-07 08:11 | 38.63967 | -9.79294 | 39080 ft | 496 kts | 112° |
| 2026-05-07 08:12 | 38.61396 | -9.71112 | 39079 ft | 496 kts | 111° |
| 2026-05-07 08:12 | 38.58844 | -9.62957 | 39075 ft | 496 kts | 112° |
| 2026-05-07 08:13 | 38.56275 | -9.54837 | 39077 ft | 496 kts | 112° |
| 2026-05-07 08:13 | 38.53653 | -9.46664 | 39087 ft | 496 kts | 111° |
| 2026-05-07 08:14 | 38.51054 | -9.38551 | 39076 ft | 496 kts | 111° |
| 2026-05-07 08:14 | 38.48495 | -9.30445 | 39067 ft | 495 kts | 112° |
| 2026-05-07 08:15 | 38.45927 | -9.22292 | 39069 ft | 496 kts | 112° |
| 2026-05-07 08:15 | 38.43361 | -9.14131 | 39070 ft | 495 kts | 112° |
| 2026-05-07 08:16 | 38.40805 | -9.06030 | 39066 ft | 495 kts | 112° |
| 2026-05-07 08:16 | 38.38238 | -8.97914 | 39071 ft | 495 kts | 112° |
| 2026-05-07 08:17 | 38.35698 | -8.89808 | 39052 ft | 496 kts | 112° |
| 2026-05-07 08:17 | 38.33138 | -8.81645 | 39053 ft | 496 kts | 111° |
| 2026-05-07 08:18 | 38.30550 | -8.73499 | 39029 ft | 497 kts | 112° |
| 2026-05-07 08:18 | 38.27982 | -8.65378 | 39061 ft | 497 kts | 112° |
| 2026-05-07 08:19 | 38.25419 | -8.57219 | 39055 ft | 497 kts | 112° |
| 2026-05-07 08:19 | 38.22877 | -8.49105 | 39027 ft | 498 kts | 112° |
| 2026-05-07 08:20 | 38.20331 | -8.40972 | 39045 ft | 497 kts | 112° |
| 2026-05-07 08:20 | 38.17765 | -8.32791 | 39079 ft | 498 kts | 112° |
| 2026-05-07 08:21 | 38.15213 | -8.24646 | 39053 ft | 499 kts | 112° |
| 2026-05-07 08:21 | 38.12656 | -8.16483 | 39053 ft | 499 kts | 112° |
| 2026-05-07 08:22 | 38.10115 | -8.08312 | 39051 ft | 499 kts | 112° |
| 2026-05-07 08:22 | 38.07573 | -8.00170 | 39038 ft | 499 kts | 112° |
| 2026-05-07 08:23 | 38.05012 | -7.91928 | 39039 ft | 501 kts | 112° |
| 2026-05-07 08:23 | 38.02459 | -7.83751 | 39051 ft | 501 kts | 112° |
| 2026-05-07 08:24 | 38.01167 | -7.79987 | 39026 ft | 499 kts | 121° |
| 2026-05-07 08:24 | 37.99058 | -7.76564 | 38901 ft | 488 kts | 142° |
| 2026-05-07 08:24 | 37.96272 | -7.74193 | 38366 ft | 479 kts | 161° |
| 2026-05-07 08:24 | 37.93117 | -7.73083 | 37351 ft | 475 kts | 181° |
| 2026-05-07 08:25 | 37.89856 | -7.73372 | 36191 ft | 468 kts | 202° |
| 2026-05-07 08:25 | 37.86939 | -7.75040 | 35218 ft | 457 kts | 224° |
| 2026-05-07 08:25 | 37.84757 | -7.77796 | 34282 ft | 442 kts | 245° |
| 2026-05-07 08:25 | 37.83579 | -7.81239 | 33336 ft | 423 kts | 265° |
| 2026-05-07 08:26 | 37.84610 | -7.88049 | 31709 ft | 395 kts | 303° |
| 2026-05-07 08:26 | 37.86136 | -7.90869 | 31124 ft | 397 kts | 302° |
| 2026-05-07 08:26 | 37.87569 | -7.93892 | 30538 ft | 406 kts | 300° |
| 2026-05-07 08:27 | 37.88994 | -7.96986 | 30138 ft | 412 kts | 298° |
| 2026-05-07 08:27 | 37.90414 | -8.00102 | 29572 ft | 411 kts | 299° |
| 2026-05-07 08:27 | 37.91862 | -8.03229 | 29097 ft | 408 kts | 300° |
| 2026-05-07 08:27 | 37.93293 | -8.06287 | 28639 ft | 404 kts | 300° |
| 2026-05-07 08:28 | 37.94727 | -8.09342 | 28170 ft | 401 kts | 300° |
| 2026-05-07 08:28 | 37.96157 | -8.12378 | 27678 ft | 398 kts | 300° |
| 2026-05-07 08:28 | 37.97569 | -8.15372 | 27152 ft | 396 kts | 300° |
| 2026-05-07 08:28 | 37.98980 | -8.18353 | 26618 ft | 396 kts | 300° |
| 2026-05-07 08:29 | 38.00384 | -8.21321 | 26093 ft | 394 kts | 300° |
| 2026-05-07 08:29 | 38.01786 | -8.24291 | 25562 ft | 393 kts | 300° |
| 2026-05-07 08:29 | 38.03178 | -8.27242 | 25023 ft | 392 kts | 299° |
| 2026-05-07 08:29 | 38.04582 | -8.30222 | 24485 ft | 391 kts | 299° |
| 2026-05-07 08:30 | 38.05972 | -8.33177 | 23952 ft | 390 kts | 299° |
| 2026-05-07 08:30 | 38.07348 | -8.36107 | 23424 ft | 388 kts | 299° |
| 2026-05-07 08:30 | 38.08724 | -8.39039 | 22905 ft | 387 kts | 299° |
| 2026-05-07 08:30 | 38.10093 | -8.41959 | 22392 ft | 386 kts | 298° |
| 2026-05-07 08:31 | 38.11461 | -8.44880 | 21873 ft | 384 kts | 298° |
| 2026-05-07 08:31 | 38.12820 | -8.47785 | 21357 ft | 382 kts | 299° |
| 2026-05-07 08:31 | 38.14162 | -8.50658 | 20875 ft | 380 kts | 299° |
| 2026-05-07 08:31 | 38.15496 | -8.53515 | 20406 ft | 377 kts | 299° |
| 2026-05-07 08:32 | 38.16828 | -8.56370 | 19935 ft | 374 kts | 299° |
| 2026-05-07 08:32 | 38.18149 | -8.59205 | 19458 ft | 372 kts | 299° |
| 2026-05-07 08:32 | 38.19464 | -8.62026 | 18985 ft | 369 kts | 299° |
| 2026-05-07 08:32 | 38.20763 | -8.64817 | 18530 ft | 366 kts | 299° |
| 2026-05-07 08:33 | 38.22051 | -8.67584 | 18081 ft | 364 kts | 298° |
| 2026-05-07 08:33 | 38.23326 | -8.70330 | 17746 ft | 358 kts | 298° |
| 2026-05-07 08:33 | 38.24580 | -8.73030 | 17410 ft | 352 kts | 298° |
| 2026-05-07 08:33 | 38.25800 | -8.75673 | 17067 ft | 347 kts | 298° |
| 2026-05-07 08:34 | 38.27012 | -8.78302 | 16746 ft | 342 kts | 298° |
| 2026-05-07 08:34 | 38.28206 | -8.80891 | 16437 ft | 338 kts | 298° |
| 2026-05-07 08:34 | 38.29398 | -8.83471 | 16133 ft | 333 kts | 298° |
| 2026-05-07 08:34 | 38.30550 | -8.85963 | 15846 ft | 328 kts | 298° |
| 2026-05-07 08:35 | 38.31709 | -8.88440 | 15560 ft | 324 kts | 302° |
| 2026-05-07 08:35 | 38.33127 | -8.90681 | 15284 ft | 321 kts | 312° |
| 2026-05-07 08:35 | 38.34707 | -8.92653 | 15018 ft | 317 kts | 315° |
| 2026-05-07 08:35 | 38.36303 | -8.94575 | 14760 ft | 313 kts | 315° |
| 2026-05-07 08:36 | 38.37877 | -8.96471 | 14508 ft | 309 kts | 315° |
| 2026-05-07 08:36 | 38.39400 | -8.98319 | 14266 ft | 304 kts | 314° |
| 2026-05-07 08:36 | 38.40847 | -9.00244 | 14029 ft | 298 kts | 308° |
| 2026-05-07 08:36 | 38.42147 | -9.02292 | 13793 ft | 294 kts | 307° |
| 2026-05-07 08:37 | 38.43395 | -9.04327 | 13572 ft | 290 kts | 306° |
| 2026-05-07 08:37 | 38.44631 | -9.06354 | 13355 ft | 286 kts | 306° |
| 2026-05-07 08:37 | 38.45842 | -9.08338 | 13146 ft | 282 kts | 306° |
| 2026-05-07 08:37 | 38.47026 | -9.10277 | 12929 ft | 278 kts | 306° |
| 2026-05-07 08:38 | 38.48180 | -9.12248 | 12682 ft | 276 kts | 298° |
| 2026-05-07 08:38 | 38.48782 | -9.14593 | 12055 ft | 288 kts | 272° |
| 2026-05-07 08:38 | 38.48498 | -9.17075 | 11407 ft | 285 kts | 246° |
| 2026-05-07 08:38 | 38.47375 | -9.19146 | 10757 ft | 282 kts | 225° |
| 2026-05-07 08:39 | 38.45943 | -9.20786 | 10115 ft | 280 kts | 220° |
| 2026-05-07 08:39 | 38.44441 | -9.22357 | 9449 ft | 279 kts | 219° |
| 2026-05-07 08:39 | 38.42938 | -9.23899 | 8787 ft | 277 kts | 219° |
| 2026-05-07 08:39 | 38.41444 | -9.25427 | 8130 ft | 276 kts | 219° |
| 2026-05-07 08:40 | 38.39952 | -9.26951 | 7473 ft | 275 kts | 219° |
| 2026-05-07 08:40 | 38.38498 | -9.28510 | 6812 ft | 274 kts | 227° |
| 2026-05-07 08:40 | 38.37606 | -9.30619 | 6132 ft | 273 kts | 262° |
| 2026-05-07 08:40 | 38.37745 | -9.32965 | 5617 ft | 267 kts | 290° |
| 2026-05-07 08:41 | 38.38610 | -9.34948 | 5456 ft | 249 kts | 312° |
| 2026-05-07 08:41 | 38.39913 | -9.36279 | 5318 ft | 234 kts | 334° |
| 2026-05-07 08:41 | 38.41437 | -9.36708 | 5207 ft | 224 kts | 6° |
| 2026-05-07 08:41 | 38.42874 | -9.36001 | 5102 ft | 225 kts | 34° |
| 2026-05-07 08:42 | 38.44092 | -9.34734 | 4978 ft | 226 kts | 41° |
| 2026-05-07 08:42 | 38.45231 | -9.33408 | 4791 ft | 225 kts | 42° |
| 2026-05-07 08:42 | 38.46374 | -9.32052 | 4589 ft | 224 kts | 42° |
| 2026-05-07 08:42 | 38.47508 | -9.30702 | 4405 ft | 223 kts | 41° |
| 2026-05-07 08:43 | 38.48720 | -9.29481 | 4251 ft | 218 kts | 31° |
| 2026-05-07 08:43 | 38.50036 | -9.28566 | 4155 ft | 211 kts | 24° |
| 2026-05-07 08:43 | 38.51361 | -9.27845 | 4135 ft | 208 kts | 21° |
| 2026-05-07 08:43 | 38.52710 | -9.27157 | 4121 ft | 208 kts | 20° |
| 2026-05-07 08:44 | 38.54064 | -9.26461 | 4104 ft | 208 kts | 20° |
| 2026-05-07 08:44 | 38.55404 | -9.25762 | 4114 ft | 208 kts | 21° |
| 2026-05-07 08:44 | 38.56732 | -9.25065 | 4124 ft | 208 kts | 21° |
| 2026-05-07 08:44 | 38.58027 | -9.24379 | 4125 ft | 208 kts | 22° |
| 2026-05-07 08:45 | 38.59375 | -9.23654 | 3994 ft | 209 kts | 22° |
| 2026-05-07 08:45 | 38.60730 | -9.22924 | 3724 ft | 211 kts | 22° |
| 2026-05-07 08:45 | 38.62083 | -9.22188 | 3444 ft | 214 kts | 21° |
| 2026-05-07 08:45 | 38.63455 | -9.21452 | 3160 ft | 216 kts | 21° |
| 2026-05-07 08:46 | 38.64864 | -9.20700 | 2865 ft | 216 kts | 21° |
| 2026-05-07 08:46 | 38.66219 | -9.19976 | 2586 ft | 208 kts | 21° |
| 2026-05-07 08:46 | 38.67533 | -9.19270 | 2330 ft | 200 kts | 21° |
| 2026-05-07 08:46 | 38.68792 | -9.18593 | 2074 ft | 192 kts | 21° |
| 2026-05-07 08:47 | 38.69994 | -9.17947 | 1817 ft | 182 kts | 21° |
| 2026-05-07 08:47 | 38.71135 | -9.17333 | 1587 ft | 173 kts | 20° |
| 2026-05-07 08:47 | 38.72228 | -9.16748 | 1357 ft | 166 kts | 20° |
| 2026-05-07 08:47 | 38.73276 | -9.16191 | 1139 ft | 160 kts | 20° |
| 2026-05-07 08:48 | 38.74294 | -9.15647 | 923 ft | 154 kts | 20° |
| 2026-05-07 08:48 | 38.75260 | -9.15128 | 721 ft | 149 kts | 20° |
| 2026-05-07 08:48 | 38.76202 | -9.14620 | 522 ft | 143 kts | 20° |
| 2026-05-07 08:48 | 38.77099 | -9.14144 | 394 ft | 134 kts | 20° |
| 2026-05-07 08:49 | 38.77746 | -9.13799 | 391 ft | 58 kts | 22° |
| 2026-05-07 08:49 | 38.78030 | -9.13648 | 391 ft | 41 kts | 22° |
| 2026-05-07 08:49 | 38.78252 | -9.13503 | 391 ft | 34 kts | 37° |
| 2026-05-07 08:49 | 38.78370 | -9.13320 | 391 ft | 15 kts | 90° |
| 2026-05-07 08:50 | 38.78297 | -9.13279 | 391 ft | 14 kts | 194° |
| 2026-05-07 08:50 | 38.78195 | -9.13326 | 391 ft | 15 kts | 204° |
| 2026-05-07 08:50 | 38.78090 | -9.13386 | 391 ft | 17 kts | 204° |
| 2026-05-07 08:50 | 38.77968 | -9.13402 | 391 ft | 19 kts | 170° |
| 2026-05-07 08:51 | 38.77829 | -9.13365 | 391 ft | 20 kts | 165° |
| 2026-05-07 08:51 | 38.77690 | -9.13323 | 391 ft | 20 kts | 172° |
| 2026-05-07 08:51 | 38.77557 | -9.13310 | 391 ft | 12 kts | 165° |
| 2026-05-07 08:51 | 38.77539 | -9.13237 | 391 ft | 10 kts | 82° |
| 2026-05-07 08:52 | 38.77547 | -9.13184 | 391 ft | 1 kts | 78° |
| 2026-05-07 08:52 | 38.77548 | -9.13180 | 391 ft | 0 kts | 78° |